PWSweather.com
Personal Weather Stations
Station Observations
SJQUICK
Almaden, San Jose, CA 95120

AlmadenSan Jose, CA 95120

Lat: 37.204363, Lon: -121.871504

Elevation: 486

Station Type: Davas Vantage Pro Plus

www.weather.netdiving.com

High Low Average
Temperature 58.3°F14.6°C 51.4°F10.8°C 54.3°F12.4°C
Dew Point 53.6°F12.0°C 48.4°F9.1°C 51.0°F10.6°C
Winds 21.0 mph 33.8 kmh Calm Calm 5.0 mph SE8.0 kmh SE
Wind Gusts 21.0 mph33.8 kmh -- 9.0 mph14.5 kmh
Humidity 93% 84% 89%
Pressure 30.11 in1019.6 mb 29.91 in1012.9 mb -
Precipitation 1.04 in26.4 mm - -
Hour Temp Dew Point Humidity Winds Wind Gusts Pressure Precip Precip Rate Daily Precip Total
12:00 AM 52.0°F11.1°C 50.0°F10.0°C 93% 7.0 mph E11.3 kmh E 13.0 mph20.9 kmh 29.94 in1013.9 mb 0.09 in2.3 mm 0.00 in0.0 mm 0.09 in2.3 mm
12:02 AM 52.0°F11.1°C 50.0°F10.0°C 93% 8.0 mph E12.9 kmh E 13.0 mph20.9 kmh 29.94 in1013.9 mb 0.09 in2.3 mm 0.00 in0.0 mm 0.09 in2.3 mm
12:04 AM 52.0°F11.1°C 50.0°F10.0°C 93% 3.0 mph ESE4.8 kmh ESE 13.0 mph20.9 kmh 29.94 in1013.9 mb 0.09 in2.3 mm 0.00 in0.0 mm 0.09 in2.3 mm
12:06 AM 52.0°F11.1°C 50.0°F10.0°C 93% 7.0 mph ESE11.3 kmh ESE 8.0 mph12.9 kmh 29.94 in1013.9 mb 0.12 in3.0 mm 0.90 in22.9 mm 0.12 in3.0 mm
12:08 AM 52.0°F11.1°C 50.0°F10.0°C 93% 3.0 mph ESE4.8 kmh ESE 8.0 mph12.9 kmh 29.94 in1013.9 mb 0.12 in3.0 mm 0.00 in0.0 mm 0.12 in3.0 mm
12:10 AM 52.2°F11.2°C 50.2°F10.1°C 93% 2.0 mph S3.2 kmh S 8.0 mph12.9 kmh 29.94 in1013.9 mb 0.12 in3.0 mm 0.00 in0.0 mm 0.12 in3.0 mm
12:12 AM 52.2°F11.2°C 50.2°F10.1°C 93% 2.0 mph S3.2 kmh S 8.0 mph12.9 kmh 29.94 in1013.9 mb 0.12 in3.0 mm 0.00 in0.0 mm 0.12 in3.0 mm
12:14 AM 52.2°F11.2°C 50.2°F10.1°C 93% 6.0 mph ESE9.7 kmh ESE 8.0 mph12.9 kmh 29.94 in1013.9 mb 0.12 in3.0 mm 0.00 in0.0 mm 0.12 in3.0 mm
12:16 AM 52.2°F11.2°C 50.2°F10.1°C 93% 1.0 mph ESE1.6 kmh ESE 7.0 mph11.3 kmh 29.94 in1013.9 mb 0.12 in3.0 mm 0.00 in0.0 mm 0.12 in3.0 mm
12:18 AM 52.2°F11.2°C 50.2°F10.1°C 93% 11.0 mph ESE17.7 kmh ESE 11.0 mph17.7 kmh 29.94 in1013.9 mb 0.12 in3.0 mm 0.00 in0.0 mm 0.12 in3.0 mm
12:20 AM 52.2°F11.2°C 50.2°F10.1°C 93% 3.0 mph ESE4.8 kmh ESE 11.0 mph17.7 kmh 29.94 in1013.9 mb 0.12 in3.0 mm 0.00 in0.0 mm 0.12 in3.0 mm
12:22 AM 52.2°F11.2°C 50.2°F10.1°C 93% 3.0 mph ESE4.8 kmh ESE 11.0 mph17.7 kmh 29.94 in1013.9 mb 0.12 in3.0 mm 0.00 in0.0 mm 0.12 in3.0 mm
12:24 AM 52.2°F11.2°C 50.2°F10.1°C 93% 3.0 mph ESE4.8 kmh ESE 11.0 mph17.7 kmh 29.94 in1013.9 mb 0.12 in3.0 mm 0.00 in0.0 mm 0.12 in3.0 mm
12:26 AM 52.0°F11.1°C 50.0°F10.0°C 93% 8.0 mph ESE12.9 kmh ESE 11.0 mph17.7 kmh 29.94 in1013.9 mb 0.12 in3.0 mm 0.00 in0.0 mm 0.12 in3.0 mm
12:28 AM 52.0°F11.1°C 50.0°F10.0°C 93% 8.0 mph ESE12.9 kmh ESE 11.0 mph17.7 kmh 29.94 in1013.9 mb 0.12 in3.0 mm 0.00 in0.0 mm 0.12 in3.0 mm
12:30 AM 51.9°F11.1°C 49.9°F9.9°C 93% 7.0 mph SSE11.3 kmh SSE 11.0 mph17.7 kmh 29.94 in1013.9 mb 0.12 in3.0 mm 0.00 in0.0 mm 0.12 in3.0 mm
12:32 AM 51.9°F11.1°C 49.9°F9.9°C 93% 7.0 mph SE11.3 kmh SE 11.0 mph17.7 kmh 29.94 in1013.9 mb 0.12 in3.0 mm 0.00 in0.0 mm 0.12 in3.0 mm
12:34 AM 51.9°F11.1°C 49.9°F9.9°C 93% 13.0 mph SE20.9 kmh SE 13.0 mph20.9 kmh 29.94 in1013.9 mb 0.12 in3.0 mm 0.00 in0.0 mm 0.12 in3.0 mm
12:36 AM 51.9°F11.1°C 49.9°F9.9°C 93% 7.0 mph SE11.3 kmh SE 13.0 mph20.9 kmh 29.94 in1013.9 mb 0.12 in3.0 mm 0.00 in0.0 mm 0.12 in3.0 mm
12:38 AM 51.9°F11.1°C 49.9°F9.9°C 93% 3.0 mph SE4.8 kmh SE 13.0 mph20.9 kmh 29.94 in1013.9 mb 0.12 in3.0 mm 0.00 in0.0 mm 0.12 in3.0 mm
12:40 AM 51.9°F11.1°C 49.9°F9.9°C 93% 8.0 mph SE12.9 kmh SE 13.0 mph20.9 kmh 29.94 in1013.9 mb 0.12 in3.0 mm 0.00 in0.0 mm 0.12 in3.0 mm
12:42 AM 51.9°F11.1°C 49.9°F9.9°C 93% 8.0 mph SE12.9 kmh SE 13.0 mph20.9 kmh 29.94 in1013.9 mb 0.12 in3.0 mm 0.00 in0.0 mm 0.12 in3.0 mm
12:44 AM 51.9°F11.1°C 49.6°F9.8°C 92% 4.0 mph E6.4 kmh E 13.0 mph20.9 kmh 29.94 in1013.9 mb 0.12 in3.0 mm 0.00 in0.0 mm 0.12 in3.0 mm
12:46 AM 51.9°F11.1°C 49.6°F9.8°C 92% 8.0 mph SE12.9 kmh SE 13.0 mph20.9 kmh 29.94 in1013.9 mb 0.12 in3.0 mm 0.00 in0.0 mm 0.12 in3.0 mm
12:48 AM 51.9°F11.1°C 49.6°F9.8°C 92% 18.0 mph SE29.0 kmh SE 18.0 mph29.0 kmh 29.94 in1013.9 mb 0.12 in3.0 mm 0.00 in0.0 mm 0.12 in3.0 mm
12:50 AM 51.7°F10.9°C 49.5°F9.7°C 92% 5.0 mph ESE8.0 kmh ESE 18.0 mph29.0 kmh 29.94 in1013.9 mb 0.21 in5.3 mm 2.70 in68.6 mm 0.21 in5.3 mm
12:52 AM 51.7°F10.9°C 49.5°F9.7°C 92% 5.0 mph ESE8.0 kmh ESE 18.0 mph29.0 kmh 29.94 in1013.9 mb 0.21 in5.3 mm 0.00 in0.0 mm 0.21 in5.3 mm
12:54 AM 51.7°F10.9°C 49.5°F9.7°C 92% 5.0 mph ESE8.0 kmh ESE 18.0 mph29.0 kmh 29.94 in1013.9 mb 0.21 in5.3 mm 0.00 in0.0 mm 0.21 in5.3 mm
12:56 AM 51.7°F10.9°C 49.5°F9.7°C 92% 5.0 mph ESE8.0 kmh ESE 18.0 mph29.0 kmh 29.94 in1013.9 mb 0.21 in5.3 mm 0.00 in0.0 mm 0.21 in5.3 mm
12:58 AM 51.7°F10.9°C 49.5°F9.7°C 92% 8.0 mph SE12.9 kmh SE 18.0 mph29.0 kmh 29.94 in1013.9 mb 0.21 in5.3 mm 0.00 in0.0 mm 0.21 in5.3 mm
01:00 AM 51.7°F10.9°C 49.5°F9.7°C 92% 8.0 mph E12.9 kmh E 18.0 mph29.0 kmh 29.93 in1013.5 mb 0.21 in5.3 mm 0.00 in0.0 mm 0.04 in1.0 mm
01:02 AM 51.7°F10.9°C 49.5°F9.7°C 92% 5.0 mph SE8.0 kmh SE 18.0 mph29.0 kmh 29.93 in1013.5 mb 0.08 in2.0 mm 0.00 in0.0 mm 0.04 in1.0 mm
01:04 AM 51.7°F10.9°C 49.5°F9.7°C 92% 7.0 mph SE11.3 kmh SE 18.0 mph29.0 kmh 29.93 in1013.5 mb 0.08 in2.0 mm 0.00 in0.0 mm 0.04 in1.0 mm
01:06 AM 51.7°F10.9°C 49.5°F9.7°C 92% 6.0 mph ESE9.7 kmh ESE 18.0 mph29.0 kmh 29.93 in1013.5 mb 0.08 in2.0 mm 0.00 in0.0 mm 0.04 in1.0 mm
01:08 AM 51.9°F11.1°C 49.6°F9.8°C 92% 8.0 mph E12.9 kmh E 11.0 mph17.7 kmh 29.93 in1013.5 mb 0.07 in1.8 mm 0.00 in0.0 mm 0.09 in2.3 mm
01:10 AM 51.9°F11.1°C 49.6°F9.8°C 92% 8.0 mph ESE12.9 kmh ESE 11.0 mph17.7 kmh 29.93 in1013.5 mb 0.07 in1.8 mm 0.00 in0.0 mm 0.09 in2.3 mm
01:12 AM 51.9°F11.1°C 49.6°F9.8°C 92% 5.0 mph SE8.0 kmh SE 12.0 mph19.3 kmh 29.93 in1013.5 mb 0.06 in1.5 mm 0.00 in0.0 mm 0.09 in2.3 mm
01:14 AM 51.9°F11.1°C 49.6°F9.8°C 92% 6.0 mph SE9.7 kmh SE 16.0 mph25.7 kmh 29.94 in1013.9 mb 0.05 in1.3 mm 0.00 in0.0 mm 0.09 in2.3 mm
01:16 AM 51.9°F11.1°C 49.6°F9.8°C 92% 12.0 mph SE19.3 kmh SE 16.0 mph25.7 kmh 29.94 in1013.9 mb 0.04 in1.0 mm 0.00 in0.0 mm 0.09 in2.3 mm
01:18 AM 51.9°F11.1°C 49.6°F9.8°C 92% 7.0 mph ESE11.3 kmh ESE 16.0 mph25.7 kmh 29.94 in1013.9 mb 0.04 in1.0 mm 0.00 in0.0 mm 0.09 in2.3 mm
01:20 AM 51.9°F11.1°C 49.6°F9.8°C 92% 7.0 mph E11.3 kmh E 16.0 mph25.7 kmh 29.94 in1013.9 mb 0.00 in0.0 mm 0.00 in0.0 mm 0.09 in2.3 mm
01:22 AM 51.9°F11.1°C 49.6°F9.8°C 92% 7.0 mph SE11.3 kmh SE 16.0 mph25.7 kmh 29.94 in1013.9 mb 0.00 in0.0 mm 0.00 in0.0 mm 0.09 in2.3 mm
01:24 AM 51.9°F11.1°C 49.6°F9.8°C 92% 7.0 mph SE11.3 kmh SE 16.0 mph25.7 kmh 29.94 in1013.9 mb 0.00 in0.0 mm 0.00 in0.0 mm 0.09 in2.3 mm
01:26 AM 52.0°F11.1°C 49.7°F9.8°C 92% 8.0 mph ESE12.9 kmh ESE 16.0 mph25.7 kmh 29.94 in1013.9 mb 0.00 in0.0 mm 0.00 in0.0 mm 0.09 in2.3 mm
01:28 AM 52.0°F11.1°C 49.7°F9.8°C 92% 7.0 mph ESE11.3 kmh ESE 16.0 mph25.7 kmh 29.94 in1013.9 mb 0.00 in0.0 mm 0.00 in0.0 mm 0.09 in2.3 mm
01:30 AM 52.0°F11.1°C 49.7°F9.8°C 92% 14.0 mph SSE22.5 kmh SSE 16.0 mph25.7 kmh 29.95 in1014.2 mb 0.00 in0.0 mm 0.00 in0.0 mm 0.09 in2.3 mm
01:32 AM 52.0°F11.1°C 49.7°F9.8°C 92% 13.0 mph SSE20.9 kmh SSE 16.0 mph25.7 kmh 29.95 in1014.2 mb 0.00 in0.0 mm 0.00 in0.0 mm 0.09 in2.3 mm
01:34 AM 52.0°F11.1°C 49.7°F9.8°C 92% 13.0 mph SSE20.9 kmh SSE 14.0 mph22.5 kmh 29.95 in1014.2 mb 0.00 in0.0 mm 0.00 in0.0 mm 0.09 in2.3 mm
01:36 AM 52.0°F11.1°C 49.7°F9.8°C 92% 10.0 mph SE16.1 kmh SE 14.0 mph22.5 kmh 29.95 in1014.2 mb 0.00 in0.0 mm 0.00 in0.0 mm 0.09 in2.3 mm
01:38 AM 52.0°F11.1°C 49.7°F9.8°C 92% 10.0 mph SE16.1 kmh SE 14.0 mph22.5 kmh 29.95 in1014.2 mb 0.00 in0.0 mm 0.00 in0.0 mm 0.09 in2.3 mm
01:40 AM 52.0°F11.1°C 49.7°F9.8°C 92% 2.0 mph ESE3.2 kmh ESE 14.0 mph22.5 kmh 29.95 in1014.2 mb 0.00 in0.0 mm 0.00 in0.0 mm 0.09 in2.3 mm
01:42 AM 52.0°F11.1°C 49.7°F9.8°C 92% 6.0 mph SE9.7 kmh SE 14.0 mph22.5 kmh 29.95 in1014.2 mb 0.00 in0.0 mm 0.00 in0.0 mm 0.09 in2.3 mm
01:44 AM 51.9°F11.1°C 49.6°F9.8°C 92% 3.0 mph ESE4.8 kmh ESE 13.0 mph20.9 kmh 29.95 in1014.2 mb 0.00 in0.0 mm 0.00 in0.0 mm 0.09 in2.3 mm
01:46 AM 51.9°F11.1°C 49.6°F9.8°C 92% 6.0 mph SE9.7 kmh SE 13.0 mph20.9 kmh 29.95 in1014.2 mb 0.23 in5.8 mm 6.90 in175.3 mm 0.09 in2.3 mm
01:48 AM 51.9°F11.1°C 49.6°F9.8°C 92% 8.0 mph SE12.9 kmh SE 13.0 mph20.9 kmh 29.95 in1014.2 mb 0.23 in5.8 mm 0.00 in0.0 mm 0.09 in2.3 mm
01:50 AM 51.9°F11.1°C 49.6°F9.8°C 92% 3.0 mph SE4.8 kmh SE 13.0 mph20.9 kmh 29.95 in1014.2 mb 0.23 in5.8 mm 0.00 in0.0 mm 0.11 in2.8 mm
01:52 AM 51.7°F10.9°C 49.5°F9.7°C 92% 9.0 mph SE14.5 kmh SE 13.0 mph20.9 kmh 29.95 in1014.2 mb 0.23 in5.8 mm 0.00 in0.0 mm 0.11 in2.8 mm
01:54 AM 51.7°F10.9°C 49.5°F9.7°C 92% 10.0 mph SSE16.1 kmh SSE 10.0 mph16.1 kmh 29.95 in1014.2 mb 0.23 in5.8 mm 0.00 in0.0 mm 0.11 in2.8 mm
01:56 AM 51.7°F10.9°C 49.5°F9.7°C 92% 2.0 mph SE3.2 kmh SE 10.0 mph16.1 kmh 29.95 in1014.2 mb 0.23 in5.8 mm 0.00 in0.0 mm 0.11 in2.8 mm
01:58 AM 51.7°F10.9°C 49.5°F9.7°C 92% 8.0 mph ESE12.9 kmh ESE 13.0 mph20.9 kmh 29.95 in1014.2 mb 0.07 in1.8 mm 0.00 in0.0 mm 0.11 in2.8 mm
02:00 AM 51.7°F10.9°C 49.5°F9.7°C 92% 9.0 mph SE14.5 kmh SE 13.0 mph20.9 kmh 29.95 in1014.2 mb 0.06 in1.5 mm 0.00 in0.0 mm 0.11 in2.8 mm
02:02 AM 51.7°F10.9°C 49.5°F9.7°C 92% 8.0 mph ESE12.9 kmh ESE 13.0 mph20.9 kmh 29.95 in1014.2 mb 0.06 in1.5 mm 0.00 in0.0 mm 0.11 in2.8 mm
02:04 AM 51.7°F10.9°C 49.5°F9.7°C 92% 7.0 mph E11.3 kmh E 13.0 mph20.9 kmh 29.95 in1014.2 mb 0.06 in1.5 mm 0.00 in0.0 mm 0.13 in3.3 mm
02:06 AM 51.7°F10.9°C 49.5°F9.7°C 92% 20.0 mph SE32.2 kmh SE 20.0 mph32.2 kmh 29.95 in1014.2 mb 0.06 in1.5 mm 0.00 in0.0 mm 0.13 in3.3 mm
02:08 AM 51.9°F11.1°C 49.6°F9.8°C 92% 11.0 mph ESE17.7 kmh ESE 20.0 mph32.2 kmh 29.95 in1014.2 mb 0.06 in1.5 mm 0.00 in0.0 mm 0.13 in3.3 mm
02:10 AM 51.9°F11.1°C 49.6°F9.8°C 92% 11.0 mph ESE17.7 kmh ESE 20.0 mph32.2 kmh 29.95 in1014.2 mb 0.06 in1.5 mm 0.00 in0.0 mm 0.13 in3.3 mm
02:12 AM 51.9°F11.1°C 49.6°F9.8°C 92% 16.0 mph ESE25.7 kmh ESE 20.0 mph32.2 kmh 29.95 in1014.2 mb 0.29 in7.4 mm 6.90 in175.3 mm 0.13 in3.3 mm
02:14 AM 51.9°F11.1°C 49.6°F9.8°C 92% 16.0 mph ESE25.7 kmh ESE 20.0 mph32.2 kmh 29.93 in1013.5 mb 0.29 in7.4 mm 0.00 in0.0 mm 0.13 in3.3 mm
02:16 AM 51.9°F11.1°C 49.6°F9.8°C 92% 7.0 mph S11.3 kmh S 20.0 mph32.2 kmh 29.93 in1013.5 mb 0.29 in7.4 mm 0.00 in0.0 mm 0.13 in3.3 mm
02:18 AM 51.9°F11.1°C 49.6°F9.8°C 92% 7.0 mph ESE11.3 kmh ESE 20.0 mph32.2 kmh 29.93 in1013.5 mb 0.22 in5.6 mm 0.00 in0.0 mm 0.13 in3.3 mm
02:20 AM 51.9°F11.1°C 49.6°F9.8°C 92% 7.0 mph ESE11.3 kmh ESE 20.0 mph32.2 kmh 29.93 in1013.5 mb 0.22 in5.6 mm 0.00 in0.0 mm 0.13 in3.3 mm
02:22 AM 52.0°F11.1°C 49.7°F9.8°C 92% 10.0 mph E16.1 kmh E 20.0 mph32.2 kmh 29.93 in1013.5 mb 0.22 in5.6 mm 0.00 in0.0 mm 0.13 in3.3 mm
02:24 AM 52.2°F11.2°C 49.9°F9.9°C 92% 10.0 mph SE16.1 kmh SE 20.0 mph32.2 kmh 29.93 in1013.5 mb 0.22 in5.6 mm 0.00 in0.0 mm 0.13 in3.3 mm
02:26 AM 52.2°F11.2°C 49.9°F9.9°C 92% 13.0 mph E20.9 kmh E 13.0 mph20.9 kmh 29.93 in1013.5 mb 0.13 in3.3 mm 0.00 in0.0 mm 0.13 in3.3 mm
02:28 AM 52.2°F11.2°C 49.9°F9.9°C 92% 5.0 mph E8.0 kmh E 13.0 mph20.9 kmh 29.93 in1013.5 mb 0.13 in3.3 mm 0.00 in0.0 mm 0.13 in3.3 mm
02:30 AM 52.2°F11.2°C 49.9°F9.9°C 92% 12.0 mph SE19.3 kmh SE 13.0 mph20.9 kmh 29.93 in1013.5 mb 0.13 in3.3 mm 0.00 in0.0 mm 0.13 in3.3 mm
02:32 AM 52.2°F11.2°C 49.9°F9.9°C 92% 12.0 mph SE19.3 kmh SE 13.0 mph20.9 kmh 29.93 in1013.5 mb 0.13 in3.3 mm 0.00 in0.0 mm 0.13 in3.3 mm
02:34 AM 52.2°F11.2°C 49.9°F9.9°C 92% 12.0 mph SE19.3 kmh SE 13.0 mph20.9 kmh 29.93 in1013.5 mb 0.13 in3.3 mm 0.00 in0.0 mm 0.13 in3.3 mm
02:36 AM 52.2°F11.2°C 49.9°F9.9°C 92% 8.0 mph E12.9 kmh E 13.0 mph20.9 kmh 29.93 in1013.5 mb 0.13 in3.3 mm 0.00 in0.0 mm 0.13 in3.3 mm
02:38 AM 52.2°F11.2°C 49.9°F9.9°C 92% 5.0 mph ESE8.0 kmh ESE 13.0 mph20.9 kmh 29.93 in1013.5 mb 0.18 in4.6 mm 1.50 in38.1 mm 0.13 in3.3 mm
02:40 AM 52.3°F11.3°C 50.0°F10.0°C 92% 5.0 mph ESE8.0 kmh ESE 13.0 mph20.9 kmh 29.93 in1013.5 mb 0.13 in3.3 mm 0.00 in0.0 mm 0.13 in3.3 mm
02:42 AM 52.3°F11.3°C 50.0°F10.0°C 92% 11.0 mph E17.7 kmh E 13.0 mph20.9 kmh 29.93 in1013.5 mb 0.13 in3.3 mm 0.00 in0.0 mm 0.25 in6.4 mm
02:44 AM 52.3°F11.3°C 50.0°F10.0°C 92% 11.0 mph E17.7 kmh E 13.0 mph20.9 kmh 29.95 in1014.2 mb 0.13 in3.3 mm 0.00 in0.0 mm 0.25 in6.4 mm
02:46 AM 52.3°F11.3°C 50.0°F10.0°C 92% 10.0 mph E16.1 kmh E 12.0 mph19.3 kmh 29.95 in1014.2 mb 0.11 in2.8 mm 0.00 in0.0 mm 0.25 in6.4 mm
02:48 AM 52.3°F11.3°C 50.0°F10.0°C 92% 10.0 mph E16.1 kmh E 12.0 mph19.3 kmh 29.95 in1014.2 mb 0.11 in2.8 mm 0.00 in0.0 mm 0.25 in6.4 mm
02:50 AM 52.3°F11.3°C 50.0°F10.0°C 92% 10.0 mph E16.1 kmh E 12.0 mph19.3 kmh 29.95 in1014.2 mb 0.11 in2.8 mm 0.00 in0.0 mm 0.25 in6.4 mm
02:52 AM 52.3°F11.3°C 50.0°F10.0°C 92% 6.0 mph SE9.7 kmh SE 12.0 mph19.3 kmh 29.95 in1014.2 mb 0.23 in5.8 mm 3.60 in91.4 mm 0.25 in6.4 mm
02:54 AM 52.3°F11.3°C 50.0°F10.0°C 92% 18.0 mph SE29.0 kmh SE 18.0 mph29.0 kmh 29.95 in1014.2 mb 0.23 in5.8 mm 0.00 in0.0 mm 0.25 in6.4 mm
02:56 AM 52.3°F11.3°C 50.0°F10.0°C 92% 18.0 mph SE29.0 kmh SE 18.0 mph29.0 kmh 29.95 in1014.2 mb 0.23 in5.8 mm 0.00 in0.0 mm 0.25 in6.4 mm
02:58 AM 52.3°F11.3°C 50.0°F10.0°C 92% 12.0 mph E19.3 kmh E 18.0 mph29.0 kmh 29.95 in1014.2 mb 0.23 in5.8 mm 0.00 in0.0 mm 0.32 in8.1 mm
03:00 AM 52.0°F11.1°C 49.7°F9.8°C 92% 10.0 mph E16.1 kmh E 18.0 mph29.0 kmh 29.93 in1013.5 mb 0.25 in6.4 mm 0.02 in0.5 mm 0.32 in8.1 mm
03:02 AM 52.0°F11.1°C 49.7°F9.8°C 92% 10.0 mph E16.1 kmh E 18.0 mph29.0 kmh 29.93 in1013.5 mb 0.25 in6.4 mm 0.00 in0.0 mm 0.32 in8.1 mm
03:04 AM 52.0°F11.1°C 49.7°F9.8°C 92% 8.0 mph SE12.9 kmh SE 18.0 mph29.0 kmh 29.93 in1013.5 mb 0.12 in3.0 mm 0.00 in0.0 mm 0.32 in8.1 mm
03:06 AM 52.0°F11.1°C 49.7°F9.8°C 92% 7.0 mph ESE11.3 kmh ESE 18.0 mph29.0 kmh 29.93 in1013.5 mb 0.12 in3.0 mm 0.00 in0.0 mm 0.32 in8.1 mm
03:08 AM 52.0°F11.1°C 49.7°F9.8°C 92% 7.0 mph ESE11.3 kmh ESE 18.0 mph29.0 kmh 29.93 in1013.5 mb 0.12 in3.0 mm 0.00 in0.0 mm 0.32 in8.1 mm
03:10 AM 52.0°F11.1°C 49.7°F9.8°C 92% 10.0 mph ESE16.1 kmh ESE 18.0 mph29.0 kmh 29.93 in1013.5 mb 0.12 in3.0 mm 0.00 in0.0 mm 0.34 in8.6 mm
03:12 AM 51.9°F11.1°C 49.6°F9.8°C 92% 9.0 mph ESE14.5 kmh ESE 18.0 mph29.0 kmh 29.93 in1013.5 mb 0.12 in3.0 mm 0.00 in0.0 mm 0.34 in8.6 mm
03:14 AM 51.9°F11.1°C 49.6°F9.8°C 92% 10.0 mph E16.1 kmh E 12.0 mph19.3 kmh 29.93 in1013.5 mb 0.06 in1.5 mm 0.00 in0.0 mm 0.34 in8.6 mm
03:16 AM 51.9°F11.1°C 49.6°F9.8°C 92% 10.0 mph E16.1 kmh E 12.0 mph19.3 kmh 29.93 in1013.5 mb 0.06 in1.5 mm 0.00 in0.0 mm 0.34 in8.6 mm
03:18 AM 52.0°F11.1°C 49.7°F9.8°C 92% 6.0 mph E9.7 kmh E 12.0 mph19.3 kmh 29.93 in1013.5 mb 0.04 in1.0 mm 0.00 in0.0 mm 0.34 in8.6 mm
03:20 AM 52.0°F11.1°C 49.7°F9.8°C 92% 6.0 mph E9.7 kmh E 12.0 mph19.3 kmh 29.93 in1013.5 mb 0.04 in1.0 mm 0.00 in0.0 mm 0.34 in8.6 mm
03:22 AM 52.0°F11.1°C 49.7°F9.8°C 92% 10.0 mph ESE16.1 kmh ESE 12.0 mph19.3 kmh 29.93 in1013.5 mb 0.04 in1.0 mm 0.00 in0.0 mm 0.34 in8.6 mm
03:24 AM 52.0°F11.1°C 49.7°F9.8°C 92% 11.0 mph ESE17.7 kmh ESE 11.0 mph17.7 kmh 29.93 in1013.5 mb 0.04 in1.0 mm 0.00 in0.0 mm 0.34 in8.6 mm
03:26 AM 52.0°F11.1°C 49.7°F9.8°C 92% 5.0 mph SSE8.0 kmh SSE 11.0 mph17.7 kmh 29.93 in1013.5 mb 0.04 in1.0 mm 0.00 in0.0 mm 0.34 in8.6 mm
03:28 AM 52.0°F11.1°C 49.7°F9.8°C 92% 7.0 mph SE11.3 kmh SE 11.0 mph17.7 kmh 29.93 in1013.5 mb 0.04 in1.0 mm 0.00 in0.0 mm 0.34 in8.6 mm
03:30 AM 52.0°F11.1°C 49.7°F9.8°C 92% 7.0 mph SE11.3 kmh SE 11.0 mph17.7 kmh 29.93 in1013.5 mb 0.04 in1.0 mm 0.00 in0.0 mm 0.34 in8.6 mm
03:32 AM 52.0°F11.1°C 49.7°F9.8°C 92% 5.0 mph E8.0 kmh E 11.0 mph17.7 kmh 29.93 in1013.5 mb 0.04 in1.0 mm 0.00 in0.0 mm 0.34 in8.6 mm
03:34 AM 52.0°F11.1°C 49.7°F9.8°C 92% 4.0 mph E6.4 kmh E 11.0 mph17.7 kmh 29.93 in1013.5 mb 0.04 in1.0 mm 0.00 in0.0 mm 0.34 in8.6 mm
03:36 AM 52.0°F11.1°C 49.5°F9.7°C 91% 16.0 mph SE25.7 kmh SE 16.0 mph25.7 kmh 29.93 in1013.5 mb 0.00 in0.0 mm 0.00 in0.0 mm 0.34 in8.6 mm
03:38 AM 52.0°F11.1°C 49.5°F9.7°C 91% 8.0 mph SE12.9 kmh SE 16.0 mph25.7 kmh 29.93 in1013.5 mb 0.00 in0.0 mm 0.00 in0.0 mm 0.34 in8.6 mm
03:40 AM 52.0°F11.1°C 49.5°F9.7°C 91% 5.0 mph SSE8.0 kmh SSE 16.0 mph25.7 kmh 29.93 in1013.5 mb 0.00 in0.0 mm 0.00 in0.0 mm 0.34 in8.6 mm
03:42 AM 52.0°F11.1°C 49.5°F9.7°C 91% 20.0 mph SE32.2 kmh SE 20.0 mph32.2 kmh 29.93 in1013.5 mb 0.00 in0.0 mm 0.00 in0.0 mm 0.34 in8.6 mm
03:44 AM 52.0°F11.1°C 49.5°F9.7°C 91% 12.0 mph SE19.3 kmh SE 20.0 mph32.2 kmh 29.91 in1012.9 mb 0.00 in0.0 mm 0.00 in0.0 mm 0.34 in8.6 mm
03:46 AM 52.0°F11.1°C 49.5°F9.7°C 91% 12.0 mph SE19.3 kmh SE 20.0 mph32.2 kmh 29.91 in1012.9 mb 0.00 in0.0 mm 0.00 in0.0 mm 0.34 in8.6 mm
03:48 AM 52.0°F11.1°C 49.5°F9.7°C 91% 12.0 mph SE19.3 kmh SE 20.0 mph32.2 kmh 29.91 in1012.9 mb 0.00 in0.0 mm 0.00 in0.0 mm 0.34 in8.6 mm
03:50 AM 52.0°F11.1°C 49.5°F9.7°C 91% 7.0 mph ESE11.3 kmh ESE 20.0 mph32.2 kmh 29.91 in1012.9 mb 0.00 in0.0 mm 0.00 in0.0 mm 0.34 in8.6 mm
03:52 AM 52.2°F11.2°C 49.7°F9.8°C 91% 5.0 mph SE8.0 kmh SE 20.0 mph32.2 kmh 29.91 in1012.9 mb 0.00 in0.0 mm 0.00 in0.0 mm 0.34 in8.6 mm
03:54 AM 52.2°F11.2°C 49.7°F9.8°C 91% 10.0 mph SE16.1 kmh SE 20.0 mph32.2 kmh 29.91 in1012.9 mb 0.00 in0.0 mm 0.00 in0.0 mm 0.34 in8.6 mm
03:56 AM 52.2°F11.2°C 49.7°F9.8°C 91% 9.0 mph SE14.5 kmh SE 20.0 mph32.2 kmh 29.91 in1012.9 mb 0.00 in0.0 mm 0.00 in0.0 mm 0.34 in8.6 mm
03:58 AM 52.2°F11.2°C 49.7°F9.8°C 91% 5.0 mph ESE8.0 kmh ESE 20.0 mph32.2 kmh 29.91 in1012.9 mb 0.00 in0.0 mm 0.00 in0.0 mm 0.34 in8.6 mm
04:00 AM 52.2°F11.2°C 49.7°F9.8°C 91% 4.0 mph ESE6.4 kmh ESE 20.0 mph32.2 kmh 29.94 in1013.9 mb 0.00 in0.0 mm 0.00 in0.0 mm 0.34 in8.6 mm
04:02 AM 52.2°F11.2°C 49.7°F9.8°C 91% 7.0 mph SE11.3 kmh SE 10.0 mph16.1 kmh 29.94 in1013.9 mb 0.00 in0.0 mm 0.00 in0.0 mm 0.34 in8.6 mm
04:04 AM 52.2°F11.2°C 49.7°F9.8°C 91% 7.0 mph SE11.3 kmh SE 10.0 mph16.1 kmh 29.94 in1013.9 mb 0.00 in0.0 mm 0.00 in0.0 mm 0.34 in8.6 mm
04:06 AM 52.2°F11.2°C 49.7°F9.8°C 91% 8.0 mph E12.9 kmh E 10.0 mph16.1 kmh 29.94 in1013.9 mb 0.00 in0.0 mm 0.00 in0.0 mm 0.34 in8.6 mm
04:08 AM 52.5°F11.4°C 49.9°F9.9°C 91% 6.0 mph SE9.7 kmh SE 10.0 mph16.1 kmh 29.94 in1013.9 mb 0.00 in0.0 mm 0.00 in0.0 mm 0.34 in8.6 mm
04:10 AM 52.5°F11.4°C 49.9°F9.9°C 91% 5.0 mph SE8.0 kmh SE 10.0 mph16.1 kmh 29.94 in1013.9 mb 0.25 in6.4 mm 7.50 in190.5 mm 0.34 in8.6 mm
04:12 AM 52.5°F11.4°C 49.9°F9.9°C 91% 8.0 mph ESE12.9 kmh ESE 8.0 mph12.9 kmh 29.94 in1013.9 mb 0.21 in5.3 mm 0.00 in0.0 mm 0.34 in8.6 mm
04:14 AM 52.5°F11.4°C 49.9°F9.9°C 91% 8.0 mph ESE12.9 kmh ESE 8.0 mph12.9 kmh 29.95 in1014.2 mb 0.21 in5.3 mm 0.00 in0.0 mm 0.34 in8.6 mm
04:16 AM 52.5°F11.4°C 49.9°F9.9°C 91% 5.0 mph SE8.0 kmh SE 8.0 mph12.9 kmh 29.95 in1014.2 mb 0.21 in5.3 mm 0.00 in0.0 mm 0.34 in8.6 mm
04:18 AM 52.5°F11.4°C 49.9°F9.9°C 91% 5.0 mph SE8.0 kmh SE 8.0 mph12.9 kmh 29.95 in1014.2 mb 0.09 in2.3 mm 0.00 in0.0 mm 0.34 in8.6 mm
04:20 AM 52.5°F11.4°C 49.9°F9.9°C 91% 5.0 mph SE8.0 kmh SE 8.0 mph12.9 kmh 29.95 in1014.2 mb 0.09 in2.3 mm 0.00 in0.0 mm 0.34 in8.6 mm
04:22 AM 52.5°F11.4°C 49.9°F9.9°C 91% 8.0 mph SE12.9 kmh SE 8.0 mph12.9 kmh 29.95 in1014.2 mb 0.09 in2.3 mm 0.00 in0.0 mm 0.34 in8.6 mm
04:24 AM 52.5°F11.4°C 49.9°F9.9°C 91% 9.0 mph E14.5 kmh E 9.0 mph14.5 kmh 29.95 in1014.2 mb 0.09 in2.3 mm 0.00 in0.0 mm 0.34 in8.6 mm
04:26 AM 52.5°F11.4°C 49.9°F9.9°C 91% 9.0 mph E14.5 kmh E 9.0 mph14.5 kmh 29.95 in1014.2 mb 0.09 in2.3 mm 0.00 in0.0 mm 0.34 in8.6 mm
04:28 AM 52.5°F11.4°C 49.9°F9.9°C 91% 9.0 mph E14.5 kmh E 9.0 mph14.5 kmh 29.95 in1014.2 mb 0.09 in2.3 mm 0.00 in0.0 mm 0.34 in8.6 mm
04:30 AM 52.3°F11.3°C 49.8°F9.9°C 91% 5.0 mph SE8.0 kmh SE 9.0 mph14.5 kmh 29.96 in1014.6 mb 0.10 in2.5 mm 0.30 in7.6 mm 0.34 in8.6 mm
04:32 AM 52.3°F11.3°C 49.8°F9.9°C 91% 10.0 mph SE16.1 kmh SE 10.0 mph16.1 kmh 29.96 in1014.6 mb 0.10 in2.5 mm 0.00 in0.0 mm 0.34 in8.6 mm
04:34 AM 52.3°F11.3°C 49.8°F9.9°C 91% 7.0 mph SE11.3 kmh SE 10.0 mph16.1 kmh 29.96 in1014.6 mb 0.06 in1.5 mm 0.00 in0.0 mm 0.34 in8.6 mm
04:36 AM 52.3°F11.3°C 49.8°F9.9°C 91% 7.0 mph SE11.3 kmh SE 10.0 mph16.1 kmh 29.96 in1014.6 mb 0.06 in1.5 mm 0.00 in0.0 mm 0.34 in8.6 mm
04:38 AM 52.3°F11.3°C 49.8°F9.9°C 91% 7.0 mph SE11.3 kmh SE 10.0 mph16.1 kmh 29.96 in1014.6 mb 0.06 in1.5 mm 0.00 in0.0 mm 0.34 in8.6 mm
04:40 AM 51.9°F11.1°C 49.4°F9.7°C 91% 11.0 mph E17.7 kmh E 11.0 mph17.7 kmh 29.96 in1014.6 mb 0.06 in1.5 mm 0.00 in0.0 mm 0.34 in8.6 mm
04:42 AM 51.9°F11.1°C 49.4°F9.7°C 91% 11.0 mph E17.7 kmh E 11.0 mph17.7 kmh 29.96 in1014.6 mb 0.06 in1.5 mm 0.00 in0.0 mm 0.34 in8.6 mm
04:44 AM 51.9°F11.1°C 49.4°F9.7°C 91% 11.0 mph SE17.7 kmh SE 11.0 mph17.7 kmh 29.98 in1015.2 mb 0.06 in1.5 mm 0.00 in0.0 mm 0.34 in8.6 mm
04:46 AM 51.9°F11.1°C 49.4°F9.7°C 91% 12.0 mph SSE19.3 kmh SSE 12.0 mph19.3 kmh 29.98 in1015.2 mb 0.06 in1.5 mm 0.00 in0.0 mm 0.34 in8.6 mm
04:48 AM 51.9°F11.1°C 49.6°F9.8°C 92% 11.0 mph E17.7 kmh E 12.0 mph19.3 kmh 29.98 in1015.2 mb 0.06 in1.5 mm 0.00 in0.0 mm 0.41 in10.4 mm
04:50 AM 51.7°F10.9°C 49.5°F9.7°C 92% 11.0 mph E17.7 kmh E 14.0 mph22.5 kmh 29.98 in1015.2 mb 0.06 in1.5 mm 0.00 in0.0 mm 0.41 in10.4 mm
04:52 AM 51.7°F10.9°C 49.5°F9.7°C 92% 11.0 mph E17.7 kmh E 14.0 mph22.5 kmh 29.98 in1015.2 mb 0.06 in1.5 mm 0.00 in0.0 mm 0.42 in10.7 mm
04:54 AM 51.7°F10.9°C 49.5°F9.7°C 92% 5.0 mph ESE8.0 kmh ESE 14.0 mph22.5 kmh 29.98 in1015.2 mb 0.06 in1.5 mm 0.00 in0.0 mm 0.42 in10.7 mm
04:56 AM 51.7°F10.9°C 49.5°F9.7°C 92% 6.0 mph SE9.7 kmh SE 14.0 mph22.5 kmh 29.98 in1015.2 mb 0.06 in1.5 mm 0.00 in0.0 mm 0.42 in10.7 mm
04:58 AM 51.7°F10.9°C 49.5°F9.7°C 92% 6.0 mph SE9.7 kmh SE 14.0 mph22.5 kmh 29.98 in1015.2 mb 0.06 in1.5 mm 0.00 in0.0 mm 0.42 in10.7 mm
05:00 AM 51.7°F10.9°C 49.5°F9.7°C 92% 3.0 mph ESE4.8 kmh ESE 14.0 mph22.5 kmh 29.97 in1014.9 mb 0.06 in1.5 mm 0.00 in0.0 mm 0.42 in10.7 mm
05:02 AM 51.7°F10.9°C 49.5°F9.7°C 92% 7.0 mph ESE11.3 kmh ESE 14.0 mph22.5 kmh 29.97 in1014.9 mb 0.06 in1.5 mm 0.00 in0.0 mm 0.42 in10.7 mm
05:04 AM 51.7°F10.9°C 49.5°F9.7°C 92% 8.0 mph SE12.9 kmh SE 14.0 mph22.5 kmh 29.97 in1014.9 mb 0.06 in1.5 mm 0.00 in0.0 mm 0.42 in10.7 mm
05:06 AM 51.7°F10.9°C 49.5°F9.7°C 92% 3.0 mph SE4.8 kmh SE 14.0 mph22.5 kmh 29.97 in1014.9 mb 0.06 in1.5 mm 0.00 in0.0 mm 0.42 in10.7 mm
05:08 AM 51.7°F10.9°C 49.5°F9.7°C 92% 3.0 mph SE4.8 kmh SE 14.0 mph22.5 kmh 29.97 in1014.9 mb 0.06 in1.5 mm 0.00 in0.0 mm 0.42 in10.7 mm
05:10 AM 51.6°F10.9°C 49.4°F9.7°C 92% 7.0 mph SE11.3 kmh SE 8.0 mph12.9 kmh 29.97 in1014.9 mb 0.06 in1.5 mm 0.00 in0.0 mm 0.42 in10.7 mm
05:12 AM 51.6°F10.9°C 49.4°F9.7°C 92% 7.0 mph SE11.3 kmh SE 8.0 mph12.9 kmh 29.97 in1014.9 mb 0.06 in1.5 mm 0.00 in0.0 mm 0.42 in10.7 mm
05:14 AM 51.6°F10.9°C 49.4°F9.7°C 92% 10.0 mph E16.1 kmh E 10.0 mph16.1 kmh 29.95 in1014.2 mb 0.06 in1.5 mm 0.00 in0.0 mm 0.42 in10.7 mm
05:16 AM 51.6°F10.9°C 49.4°F9.7°C 92% 10.0 mph E16.1 kmh E 10.0 mph16.1 kmh 29.95 in1014.2 mb 0.06 in1.5 mm 0.00 in0.0 mm 0.42 in10.7 mm
05:18 AM 51.6°F10.9°C 49.4°F9.7°C 92% 6.0 mph ESE9.7 kmh ESE 10.0 mph16.1 kmh 29.95 in1014.2 mb 0.00 in0.0 mm 0.00 in0.0 mm 0.42 in10.7 mm
05:20 AM 51.6°F10.9°C 49.4°F9.7°C 92% 14.0 mph S22.5 kmh S 14.0 mph22.5 kmh 29.95 in1014.2 mb 0.00 in0.0 mm 0.00 in0.0 mm 0.42 in10.7 mm
05:22 AM 51.6°F10.9°C 49.4°F9.7°C 92% 14.0 mph S22.5 kmh S 14.0 mph22.5 kmh 29.95 in1014.2 mb 0.00 in0.0 mm 0.00 in0.0 mm 0.42 in10.7 mm
05:24 AM 51.6°F10.9°C 49.4°F9.7°C 92% 6.0 mph SE9.7 kmh SE 14.0 mph22.5 kmh 29.95 in1014.2 mb 0.00 in0.0 mm 0.00 in0.0 mm 0.42 in10.7 mm
05:26 AM 51.6°F10.9°C 49.4°F9.7°C 92% 3.0 mph ESE4.8 kmh ESE 14.0 mph22.5 kmh 29.95 in1014.2 mb 0.00 in0.0 mm 0.00 in0.0 mm 0.42 in10.7 mm
05:28 AM 51.6°F10.9°C 49.4°F9.7°C 92% 3.0 mph ESE4.8 kmh ESE 14.0 mph22.5 kmh 29.95 in1014.2 mb 0.00 in0.0 mm 0.00 in0.0 mm 0.42 in10.7 mm
05:30 AM 51.6°F10.9°C 49.4°F9.7°C 92% 7.0 mph E11.3 kmh E 14.0 mph22.5 kmh 29.96 in1014.6 mb 0.00 in0.0 mm 0.00 in0.0 mm 0.42 in10.7 mm
05:32 AM 51.6°F10.9°C 49.4°F9.7°C 92% 7.0 mph SE11.3 kmh SE 14.0 mph22.5 kmh 29.96 in1014.6 mb 0.00 in0.0 mm 0.00 in0.0 mm 0.43 in10.9 mm
05:34 AM 51.6°F10.9°C 49.4°F9.7°C 92% 11.0 mph ESE17.7 kmh ESE 14.0 mph22.5 kmh 29.96 in1014.6 mb 0.00 in0.0 mm 0.00 in0.0 mm 0.43 in10.9 mm
05:36 AM 51.6°F10.9°C 49.4°F9.7°C 92% 6.0 mph ESE9.7 kmh ESE 14.0 mph22.5 kmh 29.96 in1014.6 mb 0.00 in0.0 mm 0.00 in0.0 mm 0.43 in10.9 mm
05:38 AM 51.6°F10.9°C 49.4°F9.7°C 92% 6.0 mph ESE9.7 kmh ESE 14.0 mph22.5 kmh 29.96 in1014.6 mb 0.00 in0.0 mm 0.00 in0.0 mm 0.43 in10.9 mm
05:40 AM 51.6°F10.9°C 49.4°F9.7°C 92% 14.0 mph ESE22.5 kmh ESE 14.0 mph22.5 kmh 29.96 in1014.6 mb 0.00 in0.0 mm 0.00 in0.0 mm 0.43 in10.9 mm
05:42 AM 51.6°F10.9°C 49.4°F9.7°C 92% 14.0 mph ESE22.5 kmh ESE 14.0 mph22.5 kmh 29.96 in1014.6 mb 0.00 in0.0 mm 0.00 in0.0 mm 0.43 in10.9 mm
05:44 AM 51.6°F10.9°C 49.4°F9.7°C 92% 6.0 mph SE9.7 kmh SE 14.0 mph22.5 kmh 29.96 in1014.6 mb 0.00 in0.0 mm 0.00 in0.0 mm 0.43 in10.9 mm
05:46 AM 51.6°F10.9°C 49.4°F9.7°C 92% 6.0 mph SE9.7 kmh SE 14.0 mph22.5 kmh 29.96 in1014.6 mb 0.00 in0.0 mm 0.00 in0.0 mm 0.43 in10.9 mm
05:48 AM 51.4°F10.8°C 49.2°F9.6°C 92% 5.0 mph E8.0 kmh E 14.0 mph22.5 kmh 29.96 in1014.6 mb 0.00 in0.0 mm 0.00 in0.0 mm 0.43 in10.9 mm
05:50 AM 51.4°F10.8°C 49.2°F9.6°C 92% 6.0 mph ESE9.7 kmh ESE 14.0 mph22.5 kmh 29.96 in1014.6 mb 0.00 in0.0 mm 0.00 in0.0 mm 0.43 in10.9 mm
05:52 AM 51.4°F10.8°C 49.2°F9.6°C 92% 6.0 mph ESE9.7 kmh ESE 14.0 mph22.5 kmh 29.96 in1014.6 mb 0.00 in0.0 mm 0.00 in0.0 mm 0.43 in10.9 mm
05:54 AM 51.4°F10.8°C 49.2°F9.6°C 92% 7.0 mph E11.3 kmh E 14.0 mph22.5 kmh 29.96 in1014.6 mb 0.00 in0.0 mm 0.00 in0.0 mm 0.43 in10.9 mm
05:56 AM 51.4°F10.8°C 49.2°F9.6°C 92% 3.0 mph SE4.8 kmh SE 14.0 mph22.5 kmh 29.96 in1014.6 mb 0.00 in0.0 mm 0.00 in0.0 mm 0.43 in10.9 mm
05:58 AM 51.4°F10.8°C 49.2°F9.6°C 92% 3.0 mph SE4.8 kmh SE 14.0 mph22.5 kmh 29.96 in1014.6 mb 0.00 in0.0 mm 0.00 in0.0 mm 0.43 in10.9 mm
06:00 AM 51.4°F10.8°C 49.2°F9.6°C 92% 6.0 mph SSE9.7 kmh SSE 10.0 mph16.1 kmh 29.97 in1014.9 mb 0.00 in0.0 mm 0.00 in0.0 mm 0.43 in10.9 mm
06:02 AM 51.4°F10.8°C 49.2°F9.6°C 92% 11.0 mph SE17.7 kmh SE 11.0 mph17.7 kmh 29.97 in1014.9 mb 0.00 in0.0 mm 0.00 in0.0 mm 0.43 in10.9 mm
06:04 AM 51.4°F10.8°C 49.2°F9.6°C 92% 11.0 mph SE17.7 kmh SE 11.0 mph17.7 kmh 29.97 in1014.9 mb 0.00 in0.0 mm 0.00 in0.0 mm 0.43 in10.9 mm
06:06 AM 51.6°F10.9°C 49.4°F9.7°C 92% 7.0 mph E11.3 kmh E 11.0 mph17.7 kmh 29.97 in1014.9 mb 0.00 in0.0 mm 0.00 in0.0 mm 0.43 in10.9 mm
06:08 AM 51.6°F10.9°C 49.4°F9.7°C 92% 3.0 mph SE4.8 kmh SE 11.0 mph17.7 kmh 29.97 in1014.9 mb 0.00 in0.0 mm 0.00 in0.0 mm 0.43 in10.9 mm
06:10 AM 51.6°F10.9°C 49.4°F9.7°C 92% 13.0 mph SE20.9 kmh SE 13.0 mph20.9 kmh 29.97 in1014.9 mb 0.00 in0.0 mm 0.00 in0.0 mm 0.43 in10.9 mm
06:12 AM 51.6°F10.9°C 49.4°F9.7°C 92% 13.0 mph SE20.9 kmh SE 13.0 mph20.9 kmh 29.97 in1014.9 mb 0.00 in0.0 mm 0.00 in0.0 mm 0.43 in10.9 mm
06:14 AM 51.6°F10.9°C 49.4°F9.7°C 92% 6.0 mph ESE9.7 kmh ESE 13.0 mph20.9 kmh 29.97 in1014.9 mb 0.00 in0.0 mm 0.00 in0.0 mm 0.43 in10.9 mm
06:16 AM 51.6°F10.9°C 49.4°F9.7°C 92% 5.0 mph ESE8.0 kmh ESE 13.0 mph20.9 kmh 29.97 in1014.9 mb 0.00 in0.0 mm 0.00 in0.0 mm 0.43 in10.9 mm
06:18 AM 51.6°F10.9°C 49.4°F9.7°C 92% 12.0 mph SE19.3 kmh SE 13.0 mph20.9 kmh 29.97 in1014.9 mb 0.00 in0.0 mm 0.00 in0.0 mm 0.43 in10.9 mm
06:20 AM 51.6°F10.9°C 49.4°F9.7°C 92% 6.0 mph SSE9.7 kmh SSE 13.0 mph20.9 kmh 29.97 in1014.9 mb 0.07 in1.8 mm 2.10 in53.3 mm 0.43 in10.9 mm
06:22 AM 51.6°F10.9°C 49.4°F9.7°C 92% 6.0 mph SSE9.7 kmh SSE 13.0 mph20.9 kmh 29.97 in1014.9 mb 0.07 in1.8 mm 0.00 in0.0 mm 0.43 in10.9 mm
06:24 AM 51.7°F10.9°C 49.5°F9.7°C 92% 7.0 mph SE11.3 kmh SE 13.0 mph20.9 kmh 29.97 in1014.9 mb 0.05 in1.3 mm 0.00 in0.0 mm 0.43 in10.9 mm
06:26 AM 51.7°F10.9°C 49.5°F9.7°C 92% 8.0 mph SE12.9 kmh SE 14.0 mph22.5 kmh 29.97 in1014.9 mb 0.05 in1.3 mm 0.00 in0.0 mm 0.43 in10.9 mm
06:28 AM 51.9°F11.1°C 49.6°F9.8°C 92% 7.0 mph SE11.3 kmh SE 14.0 mph22.5 kmh 29.97 in1014.9 mb 0.05 in1.3 mm 0.00 in0.0 mm 0.43 in10.9 mm
06:30 AM 51.9°F11.1°C 49.6°F9.8°C 92% 7.0 mph SE11.3 kmh SE 14.0 mph22.5 kmh 29.98 in1015.2 mb 0.05 in1.3 mm 0.00 in0.0 mm 0.43 in10.9 mm
06:32 AM 51.9°F11.1°C 49.6°F9.8°C 92% 7.0 mph SE11.3 kmh SE 14.0 mph22.5 kmh 29.98 in1015.2 mb 0.05 in1.3 mm 0.00 in0.0 mm 0.43 in10.9 mm
06:34 AM 52.0°F11.1°C 49.7°F9.8°C 92% 5.0 mph E8.0 kmh E 14.0 mph22.5 kmh 29.98 in1015.2 mb 0.05 in1.3 mm 0.00 in0.0 mm 0.43 in10.9 mm
06:36 AM 52.0°F11.1°C 49.7°F9.8°C 92% 5.0 mph E8.0 kmh E 14.0 mph22.5 kmh 29.98 in1015.2 mb 0.05 in1.3 mm 0.00 in0.0 mm 0.43 in10.9 mm
06:38 AM 52.0°F11.1°C 49.7°F9.8°C 92% 6.0 mph SE9.7 kmh SE 14.0 mph22.5 kmh 29.98 in1015.2 mb 0.05 in1.3 mm 0.00 in0.0 mm 0.43 in10.9 mm
06:40 AM 52.0°F11.1°C 49.7°F9.8°C 92% 7.0 mph ESE11.3 kmh ESE 14.0 mph22.5 kmh 29.98 in1015.2 mb 0.05 in1.3 mm 0.00 in0.0 mm 0.43 in10.9 mm
06:42 AM 52.2°F11.2°C 49.9°F9.9°C 92% 11.0 mph ESE17.7 kmh ESE 14.0 mph22.5 kmh 29.98 in1015.2 mb 0.05 in1.3 mm 0.00 in0.0 mm 0.43 in10.9 mm
06:44 AM 52.2°F11.2°C 49.9°F9.9°C 92% 13.0 mph SE20.9 kmh SE 14.0 mph22.5 kmh 29.98 in1015.2 mb 0.05 in1.3 mm 0.00 in0.0 mm 0.43 in10.9 mm
06:46 AM 52.2°F11.2°C 49.9°F9.9°C 92% 7.0 mph S11.3 kmh S 13.0 mph20.9 kmh 29.98 in1015.2 mb 0.04 in1.0 mm 0.00 in0.0 mm 0.43 in10.9 mm
06:48 AM 52.2°F11.2°C 49.9°F9.9°C 92% 7.0 mph S11.3 kmh S 13.0 mph20.9 kmh 29.98 in1015.2 mb 0.04 in1.0 mm 0.00 in0.0 mm 0.43 in10.9 mm
06:50 AM 52.2°F11.2°C 49.9°F9.9°C 92% 7.0 mph S11.3 kmh S 13.0 mph20.9 kmh 29.98 in1015.2 mb 0.04 in1.0 mm 0.00 in0.0 mm 0.43 in10.9 mm
06:52 AM 52.2°F11.2°C 49.9°F9.9°C 92% 6.0 mph ESE9.7 kmh ESE 13.0 mph20.9 kmh 29.98 in1015.2 mb 0.04 in1.0 mm 0.00 in0.0 mm 0.43 in10.9 mm
06:54 AM 52.3°F11.3°C 50.0°F10.0°C 92% 7.0 mph ENE11.3 kmh ENE 13.0 mph20.9 kmh 29.98 in1015.2 mb 0.04 in1.0 mm 0.00 in0.0 mm 0.51 in13.0 mm
06:56 AM 52.3°F11.3°C 50.0°F10.0°C 92% 7.0 mph ENE11.3 kmh ENE 7.0 mph11.3 kmh 29.98 in1015.2 mb 0.04 in1.0 mm 0.00 in0.0 mm 0.51 in13.0 mm
06:58 AM 52.3°F11.3°C 50.0°F10.0°C 92% 7.0 mph ENE11.3 kmh ENE 7.0 mph11.3 kmh 29.98 in1015.2 mb 0.04 in1.0 mm 0.00 in0.0 mm 0.51 in13.0 mm
07:00 AM 52.3°F11.3°C 50.0°F10.0°C 92% 5.0 mph E8.0 kmh E 7.0 mph11.3 kmh 29.97 in1014.9 mb 0.13 in3.3 mm 0.09 in2.3 mm 0.51 in13.0 mm
07:02 AM 52.3°F11.3°C 50.0°F10.0°C 92% 7.0 mph E11.3 kmh E 7.0 mph11.3 kmh 29.97 in1014.9 mb 0.13 in3.3 mm 0.00 in0.0 mm 0.51 in13.0 mm
07:04 AM 52.3°F11.3°C 50.0°F10.0°C 92% 4.0 mph SE6.4 kmh SE 7.0 mph11.3 kmh 29.97 in1014.9 mb 0.13 in3.3 mm 0.00 in0.0 mm 0.51 in13.0 mm
07:06 AM 52.3°F11.3°C 50.0°F10.0°C 92% 3.0 mph E4.8 kmh E 7.0 mph11.3 kmh 29.97 in1014.9 mb 0.13 in3.3 mm 0.00 in0.0 mm 0.51 in13.0 mm
07:08 AM 52.3°F11.3°C 50.0°F10.0°C 92% 6.0 mph E9.7 kmh E 7.0 mph11.3 kmh 29.97 in1014.9 mb 0.13 in3.3 mm 0.00 in0.0 mm 0.51 in13.0 mm
07:10 AM 52.3°F11.3°C 50.0°F10.0°C 92% 6.0 mph E9.7 kmh E 7.0 mph11.3 kmh 29.97 in1014.9 mb 0.13 in3.3 mm 0.00 in0.0 mm 0.51 in13.0 mm
07:12 AM 52.6°F11.4°C 50.3°F10.2°C 92% 2.0 mph ESE3.2 kmh ESE 7.0 mph11.3 kmh 29.97 in1014.9 mb 0.13 in3.3 mm 0.00 in0.0 mm 0.51 in13.0 mm
07:14 AM 52.6°F11.4°C 50.3°F10.2°C 92% 2.0 mph E3.2 kmh E 7.0 mph11.3 kmh 29.99 in1015.6 mb 0.11 in2.8 mm 0.00 in0.0 mm 0.54 in13.7 mm
07:16 AM 52.6°F11.4°C 50.3°F10.2°C 92% 1.0 mph SE1.6 kmh SE 6.0 mph9.7 kmh 29.99 in1015.6 mb 0.08 in2.0 mm 0.00 in0.0 mm 0.54 in13.7 mm
07:18 AM 52.6°F11.4°C 50.3°F10.2°C 92% Calm Calm 6.0 mph9.7 kmh 29.99 in1015.6 mb 0.07 in1.8 mm 0.00 in0.0 mm 0.54 in13.7 mm
07:20 AM 52.6°F11.4°C 50.3°F10.2°C 92% Calm Calm -- 29.99 in1015.6 mb 0.07 in1.8 mm 0.00 in0.0 mm 0.54 in13.7 mm
07:22 AM 52.6°F11.4°C 50.3°F10.2°C 92% 2.0 mph SW3.2 kmh SW 2.0 mph3.2 kmh 29.99 in1015.6 mb 0.05 in1.3 mm 0.00 in0.0 mm 0.54 in13.7 mm
07:24 AM 52.6°F11.4°C 50.3°F10.2°C 92% 2.0 mph SW3.2 kmh SW 2.0 mph3.2 kmh 29.99 in1015.6 mb 0.05 in1.3 mm 0.00 in0.0 mm 0.54 in13.7 mm
07:26 AM 52.6°F11.4°C 50.3°F10.2°C 92% Calm Calm 2.0 mph3.2 kmh 29.99 in1015.6 mb 0.05 in1.3 mm 0.00 in0.0 mm 0.54 in13.7 mm
07:28 AM 52.6°F11.4°C 50.3°F10.2°C 92% Calm Calm -- 29.99 in1015.6 mb 0.05 in1.3 mm 0.00 in0.0 mm 0.55 in14.0 mm
07:30 AM 52.6°F11.4°C 50.3°F10.2°C 92% Calm Calm -- 30.01 in1016.3 mb 0.08 in2.0 mm 0.90 in22.9 mm 0.55 in14.0 mm
07:32 AM 52.8°F11.6°C 50.5°F10.3°C 92% Calm Calm -- 30.01 in1016.3 mb 0.08 in2.0 mm 0.00 in0.0 mm 0.55 in14.0 mm
07:34 AM 52.8°F11.6°C 50.5°F10.3°C 92% Calm Calm -- 30.01 in1016.3 mb 0.08 in2.0 mm 0.00 in0.0 mm 0.55 in14.0 mm
07:36 AM 52.8°F11.6°C 50.5°F10.3°C 92% 3.0 mph SE4.8 kmh SE 3.0 mph4.8 kmh 30.01 in1016.3 mb 0.16 in4.1 mm 2.40 in61.0 mm 0.55 in14.0 mm
07:38 AM 52.8°F11.6°C 50.5°F10.3°C 92% 3.0 mph SE4.8 kmh SE 3.0 mph4.8 kmh 30.01 in1016.3 mb 0.16 in4.1 mm 0.00 in0.0 mm 0.55 in14.0 mm
07:40 AM 52.8°F11.6°C 50.5°F10.3°C 92% 12.0 mph SE19.3 kmh SE 12.0 mph19.3 kmh 30.01 in1016.3 mb 0.16 in4.1 mm 0.00 in0.0 mm 0.55 in14.0 mm
07:42 AM 52.8°F11.6°C 50.5°F10.3°C 92% 3.0 mph ESE4.8 kmh ESE 12.0 mph19.3 kmh 30.01 in1016.3 mb 0.16 in4.1 mm 0.00 in0.0 mm 0.55 in14.0 mm
07:44 AM 52.8°F11.6°C 50.5°F10.3°C 92% 4.0 mph SE6.4 kmh SE 12.0 mph19.3 kmh 30.01 in1016.3 mb 0.14 in3.6 mm 0.00 in0.0 mm 0.55 in14.0 mm
07:46 AM 52.8°F11.6°C 50.5°F10.3°C 92% 7.0 mph SE11.3 kmh SE 12.0 mph19.3 kmh 30.01 in1016.3 mb 0.14 in3.6 mm 0.00 in0.0 mm 0.55 in14.0 mm
07:48 AM 52.8°F11.6°C 50.5°F10.3°C 92% 5.0 mph SSE8.0 kmh SSE 12.0 mph19.3 kmh 30.01 in1016.3 mb 0.14 in3.6 mm 0.00 in0.0 mm 0.55 in14.0 mm
07:50 AM 52.8°F11.6°C 50.5°F10.3°C 92% 5.0 mph SSE8.0 kmh SSE 12.0 mph19.3 kmh 30.01 in1016.3 mb 0.14 in3.6 mm 0.00 in0.0 mm 0.55 in14.0 mm
07:52 AM 52.8°F11.6°C 50.5°F10.3°C 92% 6.0 mph E9.7 kmh E 12.0 mph19.3 kmh 30.01 in1016.3 mb 0.14 in3.6 mm 0.00 in0.0 mm 0.55 in14.0 mm
07:54 AM 52.9°F11.6°C 50.6°F10.3°C 92% 7.0 mph SE11.3 kmh SE 12.0 mph19.3 kmh 30.01 in1016.3 mb 0.14 in3.6 mm 0.00 in0.0 mm 0.61 in15.5 mm
07:56 AM 52.9°F11.6°C 50.6°F10.3°C 92% 5.0 mph SE8.0 kmh SE 12.0 mph19.3 kmh 30.01 in1016.3 mb 0.25 in6.4 mm 3.30 in83.8 mm 0.61 in15.5 mm
07:58 AM 52.9°F11.6°C 50.6°F10.3°C 92% 4.0 mph SE6.4 kmh SE 12.0 mph19.3 kmh 30.01 in1016.3 mb 0.25 in6.4 mm 0.00 in0.0 mm 0.61 in15.5 mm
08:00 AM 52.9°F11.6°C 50.6°F10.3°C 92% 7.0 mph SE11.3 kmh SE 8.0 mph12.9 kmh 30.02 in1016.6 mb 0.25 in6.4 mm 0.00 in0.0 mm 0.61 in15.5 mm
08:02 AM 52.9°F11.6°C 50.6°F10.3°C 92% 2.0 mph SE3.2 kmh SE 8.0 mph12.9 kmh 30.02 in1016.6 mb 0.25 in6.4 mm 0.00 in0.0 mm 0.61 in15.5 mm
08:04 AM 52.9°F11.6°C 50.6°F10.3°C 92% 2.0 mph ESE3.2 kmh ESE 8.0 mph12.9 kmh 30.02 in1016.6 mb 0.24 in6.1 mm 0.00 in0.0 mm 0.61 in15.5 mm
08:06 AM 52.9°F11.6°C 50.6°F10.3°C 92% 2.0 mph ESE3.2 kmh ESE 8.0 mph12.9 kmh 30.02 in1016.6 mb 0.24 in6.1 mm 0.00 in0.0 mm 0.61 in15.5 mm
08:08 AM 53.1°F11.7°C 50.8°F10.4°C 92% 1.0 mph ESE1.6 kmh ESE 8.0 mph12.9 kmh 30.02 in1016.6 mb 0.24 in6.1 mm 0.00 in0.0 mm 0.61 in15.5 mm
08:10 AM 53.1°F11.7°C 50.8°F10.4°C 92% 2.0 mph E3.2 kmh E 7.0 mph11.3 kmh 30.02 in1016.6 mb 0.34 in8.6 mm 3.00 in76.2 mm 0.67 in17.0 mm
08:12 AM 53.1°F11.7°C 50.8°F10.4°C 92% 2.0 mph E3.2 kmh E 7.0 mph11.3 kmh 30.02 in1016.6 mb 0.33 in8.4 mm 0.00 in0.0 mm 0.69 in17.5 mm
08:14 AM 53.1°F11.7°C 50.8°F10.4°C 92% 1.0 mph E1.6 kmh E 7.0 mph11.3 kmh 30.03 in1016.9 mb 0.32 in8.1 mm 0.00 in0.0 mm 0.69 in17.5 mm
08:16 AM 53.1°F11.7°C 50.8°F10.4°C 92% Calm Calm 7.0 mph11.3 kmh 30.03 in1016.9 mb 0.16 in4.1 mm 0.00 in0.0 mm 0.69 in17.5 mm
08:18 AM 53.1°F11.7°C 50.8°F10.4°C 92% 1.0 mph SE1.6 kmh SE 4.0 mph6.4 kmh 30.03 in1016.9 mb 0.13 in3.3 mm 0.00 in0.0 mm 0.70 in17.8 mm
08:20 AM 53.1°F11.7°C 50.8°F10.4°C 92% 3.0 mph SE4.8 kmh SE 7.0 mph11.3 kmh 30.03 in1016.9 mb 0.13 in3.3 mm 0.00 in0.0 mm 0.70 in17.8 mm
08:22 AM 53.1°F11.7°C 50.8°F10.4°C 92% Calm Calm 7.0 mph11.3 kmh 30.03 in1016.9 mb 0.12 in3.0 mm 0.00 in0.0 mm 0.70 in17.8 mm
08:24 AM 53.1°F11.7°C 50.8°F10.4°C 92% 3.0 mph SE4.8 kmh SE 3.0 mph4.8 kmh 30.03 in1016.9 mb 0.12 in3.0 mm 0.00 in0.0 mm 0.70 in17.8 mm
08:26 AM 53.1°F11.7°C 50.8°F10.4°C 92% 3.0 mph ESE4.8 kmh ESE 3.0 mph4.8 kmh 30.03 in1016.9 mb 0.12 in3.0 mm 0.00 in0.0 mm 0.70 in17.8 mm
08:28 AM 53.1°F11.7°C 50.8°F10.4°C 92% 3.0 mph ESE4.8 kmh ESE 3.0 mph4.8 kmh 30.03 in1016.9 mb 0.12 in3.0 mm 0.00 in0.0 mm 0.70 in17.8 mm
08:30 AM 53.1°F11.7°C 50.8°F10.4°C 92% 2.0 mph SE3.2 kmh SE 3.0 mph4.8 kmh 30.03 in1016.9 mb 0.12 in3.0 mm 0.00 in0.0 mm 0.70 in17.8 mm
08:32 AM 53.1°F11.7°C 50.8°F10.4°C 92% 7.0 mph SE11.3 kmh SE 7.0 mph11.3 kmh 30.03 in1016.9 mb 0.12 in3.0 mm 0.00 in0.0 mm 0.70 in17.8 mm
08:34 AM 53.1°F11.7°C 50.8°F10.4°C 92% 3.0 mph SE4.8 kmh SE 7.0 mph11.3 kmh 30.03 in1016.9 mb 0.12 in3.0 mm 0.00 in0.0 mm 0.70 in17.8 mm
08:36 AM 53.1°F11.7°C 50.8°F10.4°C 92% 11.0 mph SSE17.7 kmh SSE 17.0 mph27.4 kmh 30.03 in1016.9 mb 0.12 in3.0 mm 0.00 in0.0 mm 0.71 in18.0 mm
08:38 AM 53.1°F11.7°C 50.8°F10.4°C 92% 7.0 mph SE11.3 kmh SE 17.0 mph27.4 kmh 30.03 in1016.9 mb 0.12 in3.0 mm 0.00 in0.0 mm 0.71 in18.0 mm
08:40 AM 53.1°F11.7°C 50.8°F10.4°C 92% 7.0 mph SE11.3 kmh SE 17.0 mph27.4 kmh 30.03 in1016.9 mb 0.12 in3.0 mm 0.00 in0.0 mm 0.71 in18.0 mm
08:42 AM 53.1°F11.7°C 50.8°F10.4°C 92% 7.0 mph SE11.3 kmh SE 17.0 mph27.4 kmh 30.03 in1016.9 mb 0.12 in3.0 mm 0.00 in0.0 mm 0.71 in18.0 mm
08:44 AM 53.1°F11.7°C 50.8°F10.4°C 92% 10.0 mph SE16.1 kmh SE 17.0 mph27.4 kmh 30.04 in1017.3 mb 0.12 in3.0 mm 0.00 in0.0 mm 0.71 in18.0 mm
08:46 AM 53.1°F11.7°C 50.8°F10.4°C 92% 10.0 mph SE16.1 kmh SE 17.0 mph27.4 kmh 30.04 in1017.3 mb 0.12 in3.0 mm 0.00 in0.0 mm 0.71 in18.0 mm
08:48 AM 53.1°F11.7°C 50.8°F10.4°C 92% 9.0 mph SE14.5 kmh SE 17.0 mph27.4 kmh 30.04 in1017.3 mb 0.12 in3.0 mm 0.00 in0.0 mm 0.71 in18.0 mm
08:50 AM 53.1°F11.7°C 50.8°F10.4°C 92% 5.0 mph E8.0 kmh E 17.0 mph27.4 kmh 30.04 in1017.3 mb 0.05 in1.3 mm 0.00 in0.0 mm 0.71 in18.0 mm
08:52 AM 53.1°F11.7°C 50.8°F10.4°C 92% 11.0 mph SE17.7 kmh SE 17.0 mph27.4 kmh 30.04 in1017.3 mb 0.05 in1.3 mm 0.00 in0.0 mm 0.71 in18.0 mm
08:54 AM 53.1°F11.7°C 50.8°F10.4°C 92% Calm Calm -- 30.04 in1017.3 mb 0.05 in1.3 mm 0.00 in0.0 mm 0.73 in18.5 mm
08:56 AM 53.2°F11.8°C 50.9°F10.5°C 92% 7.0 mph SSE11.3 kmh SSE 14.0 mph22.5 kmh 30.04 in1017.3 mb 0.06 in1.5 mm 0.30 in7.6 mm 0.73 in18.5 mm
08:58 AM 53.2°F11.8°C 50.9°F10.5°C 92% 6.0 mph SE9.7 kmh SE 14.0 mph22.5 kmh 30.04 in1017.3 mb 0.06 in1.5 mm 0.00 in0.0 mm 0.73 in18.5 mm
09:00 AM 53.2°F11.8°C 50.9°F10.5°C 92% 7.0 mph SE11.3 kmh SE 14.0 mph22.5 kmh 30.05 in1017.6 mb 0.06 in1.5 mm 0.00 in0.0 mm 0.73 in18.5 mm
09:02 AM 53.2°F11.8°C 50.9°F10.5°C 92% 5.0 mph SSE8.0 kmh SSE 14.0 mph22.5 kmh 30.05 in1017.6 mb 0.06 in1.5 mm 0.00 in0.0 mm 0.73 in18.5 mm
09:04 AM 53.2°F11.8°C 50.9°F10.5°C 92% 5.0 mph SSE8.0 kmh SSE 14.0 mph22.5 kmh 30.05 in1017.6 mb 0.06 in1.5 mm 0.00 in0.0 mm 0.73 in18.5 mm
09:06 AM 53.2°F11.8°C 50.9°F10.5°C 92% 7.0 mph SE11.3 kmh SE 14.0 mph22.5 kmh 30.05 in1017.6 mb 0.17 in4.3 mm 3.30 in83.8 mm 0.73 in18.5 mm
09:08 AM 53.2°F11.8°C 50.9°F10.5°C 92% 12.0 mph SE19.3 kmh SE 14.0 mph22.5 kmh 30.05 in1017.6 mb 0.17 in4.3 mm 0.00 in0.0 mm 0.73 in18.5 mm
09:10 AM 53.2°F11.8°C 50.9°F10.5°C 92% 6.0 mph SE9.7 kmh SE 14.0 mph22.5 kmh 30.05 in1017.6 mb 0.33 in8.4 mm 4.80 in121.9 mm 0.73 in18.5 mm
09:12 AM 53.2°F11.8°C 50.9°F10.5°C 92% 10.0 mph SE16.1 kmh SE 14.0 mph22.5 kmh 30.05 in1017.6 mb 0.33 in8.4 mm 0.00 in0.0 mm 0.73 in18.5 mm
09:14 AM 53.2°F11.8°C 50.9°F10.5°C 92% 11.0 mph SE17.7 kmh SE 14.0 mph22.5 kmh 30.05 in1017.6 mb 0.33 in8.4 mm 0.00 in0.0 mm 0.73 in18.5 mm
09:16 AM 53.2°F11.8°C 50.9°F10.5°C 92% 11.0 mph SE17.7 kmh SE 12.0 mph19.3 kmh 30.05 in1017.6 mb 0.33 in8.4 mm 0.00 in0.0 mm 0.80 in20.3 mm
09:18 AM 53.2°F11.8°C 50.9°F10.5°C 92% 3.0 mph SE4.8 kmh SE 12.0 mph19.3 kmh 30.05 in1017.6 mb 0.33 in8.4 mm 0.00 in0.0 mm 0.80 in20.3 mm
09:20 AM 53.2°F11.8°C 50.9°F10.5°C 92% 4.0 mph SE6.4 kmh SE 12.0 mph19.3 kmh 30.05 in1017.6 mb 0.12 in3.0 mm 0.00 in0.0 mm 0.80 in20.3 mm
09:22 AM 53.2°F11.8°C 50.9°F10.5°C 92% 6.0 mph E9.7 kmh E 12.0 mph19.3 kmh 30.05 in1017.6 mb 0.12 in3.0 mm 0.00 in0.0 mm 0.80 in20.3 mm
09:24 AM 53.2°F11.8°C 50.9°F10.5°C 92% 6.0 mph E9.7 kmh E 12.0 mph19.3 kmh 30.05 in1017.6 mb 0.12 in3.0 mm 0.00 in0.0 mm 0.80 in20.3 mm
09:26 AM 53.2°F11.8°C 50.9°F10.5°C 92% 6.0 mph E9.7 kmh E 11.0 mph17.7 kmh 30.05 in1017.6 mb 0.12 in3.0 mm 0.00 in0.0 mm 0.80 in20.3 mm
09:28 AM 53.2°F11.8°C 50.9°F10.5°C 92% 12.0 mph ESE19.3 kmh ESE 12.0 mph19.3 kmh 30.05 in1017.6 mb 0.12 in3.0 mm 0.00 in0.0 mm 0.80 in20.3 mm
09:30 AM 53.2°F11.8°C 50.9°F10.5°C 92% 3.0 mph SE4.8 kmh SE 12.0 mph19.3 kmh 30.05 in1017.6 mb 0.12 in3.0 mm 0.00 in0.0 mm 0.80 in20.3 mm
09:32 AM 53.2°F11.8°C 50.9°F10.5°C 92% 2.0 mph ESE3.2 kmh ESE 12.0 mph19.3 kmh 30.05 in1017.6 mb 0.06 in1.5 mm 0.00 in0.0 mm 0.81 in20.6 mm
09:34 AM 53.2°F11.8°C 50.9°F10.5°C 92% 5.0 mph ESE8.0 kmh ESE 12.0 mph19.3 kmh 30.05 in1017.6 mb 0.06 in1.5 mm 0.00 in0.0 mm 0.81 in20.6 mm
09:36 AM 53.2°F11.8°C 50.9°F10.5°C 92% 6.0 mph E9.7 kmh E 12.0 mph19.3 kmh 30.05 in1017.6 mb 0.06 in1.5 mm 0.00 in0.0 mm 0.81 in20.6 mm
09:38 AM 53.3°F11.8°C 51.0°F10.6°C 92% 7.0 mph SE11.3 kmh SE 12.0 mph19.3 kmh 30.05 in1017.6 mb 0.06 in1.5 mm 0.00 in0.0 mm 0.81 in20.6 mm
09:40 AM 53.3°F11.8°C 51.0°F10.6°C 92% 7.0 mph E11.3 kmh E 12.0 mph19.3 kmh 30.05 in1017.6 mb 0.06 in1.5 mm 0.00 in0.0 mm 0.81 in20.6 mm
09:42 AM 53.3°F11.8°C 51.0°F10.6°C 92% 7.0 mph E11.3 kmh E 12.0 mph19.3 kmh 30.05 in1017.6 mb 0.06 in1.5 mm 0.00 in0.0 mm 0.81 in20.6 mm
09:44 AM 53.5°F11.9°C 51.2°F10.7°C 92% 7.0 mph ESE11.3 kmh ESE 12.0 mph19.3 kmh 30.05 in1017.6 mb 0.06 in1.5 mm 0.00 in0.0 mm 0.81 in20.6 mm
09:46 AM 53.5°F11.9°C 51.2°F10.7°C 92% 11.0 mph SSE17.7 kmh SSE 12.0 mph19.3 kmh 30.05 in1017.6 mb 0.00 in0.0 mm 0.00 in0.0 mm 0.81 in20.6 mm
09:48 AM 53.5°F11.9°C 51.2°F10.7°C 92% 11.0 mph SSE17.7 kmh SSE 11.0 mph17.7 kmh 30.05 in1017.6 mb 0.00 in0.0 mm 0.00 in0.0 mm 0.81 in20.6 mm
09:50 AM 53.5°F11.9°C 50.9°F10.5°C 91% 3.0 mph SSE4.8 kmh SSE 12.0 mph19.3 kmh 30.05 in1017.6 mb 0.00 in0.0 mm 0.00 in0.0 mm 0.82 in20.8 mm
09:52 AM 53.5°F11.9°C 50.9°F10.5°C 91% 3.0 mph SSE4.8 kmh SSE 12.0 mph19.3 kmh 30.05 in1017.6 mb 0.00 in0.0 mm 0.00 in0.0 mm 0.82 in20.8 mm
09:54 AM 53.5°F11.9°C 50.9°F10.5°C 91% 10.0 mph S16.1 kmh S 12.0 mph19.3 kmh 30.05 in1017.6 mb 0.00 in0.0 mm 0.00 in0.0 mm 0.82 in20.8 mm
09:56 AM 53.6°F12.0°C 51.0°F10.6°C 91% 12.0 mph ESE19.3 kmh ESE 12.0 mph19.3 kmh 30.05 in1017.6 mb 0.00 in0.0 mm 0.00 in0.0 mm 0.82 in20.8 mm
09:58 AM 53.6°F12.0°C 51.0°F10.6°C 91% 7.0 mph WSW11.3 kmh WSW 12.0 mph19.3 kmh 30.05 in1017.6 mb 0.00 in0.0 mm 0.00 in0.0 mm 0.82 in20.8 mm
10:00 AM 53.6°F12.0°C 51.0°F10.6°C 91% 7.0 mph WSW11.3 kmh WSW 12.0 mph19.3 kmh 30.06 in1017.9 mb 0.00 in0.0 mm 0.00 in0.0 mm 0.82 in20.8 mm
10:02 AM 53.6°F12.0°C 51.0°F10.6°C 91% 6.0 mph SE9.7 kmh SE 12.0 mph19.3 kmh 30.06 in1017.9 mb 0.00 in0.0 mm 0.00 in0.0 mm 0.82 in20.8 mm
10:04 AM 53.6°F12.0°C 51.0°F10.6°C 91% 5.0 mph E8.0 kmh E 12.0 mph19.3 kmh 30.06 in1017.9 mb 0.00 in0.0 mm 0.00 in0.0 mm 0.82 in20.8 mm
10:06 AM 53.6°F12.0°C 51.0°F10.6°C 91% 5.0 mph E8.0 kmh E 12.0 mph19.3 kmh 30.06 in1017.9 mb 0.00 in0.0 mm 0.00 in0.0 mm 0.82 in20.8 mm
10:08 AM 53.8°F12.1°C 51.2°F10.7°C 91% 11.0 mph SE17.7 kmh SE 12.0 mph19.3 kmh 30.06 in1017.9 mb 0.00 in0.0 mm 0.00 in0.0 mm 0.82 in20.8 mm
10:10 AM 53.8°F12.1°C 51.2°F10.7°C 91% 13.0 mph SE20.9 kmh SE 16.0 mph25.7 kmh 30.06 in1017.9 mb 0.04 in1.0 mm 1.20 in30.5 mm 0.82 in20.8 mm
10:12 AM 53.8°F12.1°C 51.2°F10.7°C 91% 13.0 mph SE20.9 kmh SE 16.0 mph25.7 kmh 30.06 in1017.9 mb 0.04 in1.0 mm 0.00 in0.0 mm 0.82 in20.8 mm
10:14 AM 53.9°F12.2°C 51.0°F10.6°C 90% 6.0 mph SE9.7 kmh SE 16.0 mph25.7 kmh 30.06 in1017.9 mb 0.04 in1.0 mm 0.00 in0.0 mm 0.82 in20.8 mm
10:16 AM 53.9°F12.2°C 51.0°F10.6°C 90% 10.0 mph SE16.1 kmh SE 16.0 mph25.7 kmh 30.06 in1017.9 mb 0.04 in1.0 mm 0.00 in0.0 mm 0.82 in20.8 mm
10:18 AM 53.9°F12.2°C 51.0°F10.6°C 90% 7.0 mph SE11.3 kmh SE 16.0 mph25.7 kmh 30.06 in1017.9 mb 0.04 in1.0 mm 0.00 in0.0 mm 0.82 in20.8 mm
10:20 AM 53.9°F12.2°C 51.0°F10.6°C 90% 11.0 mph ESE17.7 kmh ESE 16.0 mph25.7 kmh 30.06 in1017.9 mb 0.04 in1.0 mm 0.00 in0.0 mm 0.82 in20.8 mm
10:22 AM 53.9°F12.2°C 51.0°F10.6°C 90% 16.0 mph ESE25.7 kmh ESE 16.0 mph25.7 kmh 30.06 in1017.9 mb 0.04 in1.0 mm 0.00 in0.0 mm 0.82 in20.8 mm
10:24 AM 53.9°F12.2°C 51.0°F10.6°C 90% 10.0 mph ESE16.1 kmh ESE 16.0 mph25.7 kmh 30.06 in1017.9 mb 0.20 in5.1 mm 4.80 in121.9 mm 0.82 in20.8 mm
10:26 AM 53.9°F12.2°C 51.0°F10.6°C 90% 10.0 mph ESE16.1 kmh ESE 16.0 mph25.7 kmh 30.06 in1017.9 mb 0.20 in5.1 mm 0.00 in0.0 mm 0.82 in20.8 mm
10:28 AM 53.9°F12.2°C 51.0°F10.6°C 90% 10.0 mph ESE16.1 kmh ESE 16.0 mph25.7 kmh 30.06 in1017.9 mb 0.20 in5.1 mm 0.00 in0.0 mm 0.82 in20.8 mm
10:30 AM 53.9°F12.2°C 51.0°F10.6°C 90% 2.0 mph ESE3.2 kmh ESE 16.0 mph25.7 kmh 30.06 in1017.9 mb 0.20 in5.1 mm 0.00 in0.0 mm 0.82 in20.8 mm
10:32 AM 53.9°F12.2°C 51.0°F10.6°C 90% 7.0 mph E11.3 kmh E 16.0 mph25.7 kmh 30.06 in1017.9 mb 0.20 in5.1 mm 0.00 in0.0 mm 0.82 in20.8 mm
10:34 AM 53.9°F12.2°C 51.0°F10.6°C 90% 7.0 mph E11.3 kmh E 16.0 mph25.7 kmh 30.06 in1017.9 mb 0.20 in5.1 mm 0.00 in0.0 mm 0.82 in20.8 mm
10:36 AM 53.9°F12.2°C 51.0°F10.6°C 90% 6.0 mph SE9.7 kmh SE 16.0 mph25.7 kmh 30.06 in1017.9 mb 0.20 in5.1 mm 0.00 in0.0 mm 0.82 in20.8 mm
10:38 AM 53.9°F12.2°C 51.0°F10.6°C 90% 7.0 mph E11.3 kmh E 16.0 mph25.7 kmh 30.06 in1017.9 mb 0.16 in4.1 mm 0.00 in0.0 mm 0.82 in20.8 mm
10:40 AM 54.1°F12.3°C 51.2°F10.7°C 90% 5.0 mph ESE8.0 kmh ESE 10.0 mph16.1 kmh 30.06 in1017.9 mb 0.16 in4.1 mm 0.00 in0.0 mm 0.82 in20.8 mm
10:42 AM 54.1°F12.3°C 51.2°F10.7°C 90% 5.0 mph ESE8.0 kmh ESE 10.0 mph16.1 kmh 30.06 in1017.9 mb 0.16 in4.1 mm 0.00 in0.0 mm 0.82 in20.8 mm
10:44 AM 54.1°F12.3°C 51.2°F10.7°C 90% 5.0 mph ESE8.0 kmh ESE 10.0 mph16.1 kmh 30.06 in1017.9 mb 0.16 in4.1 mm 0.00 in0.0 mm 0.82 in20.8 mm
10:46 AM 54.1°F12.3°C 51.2°F10.7°C 90% 5.0 mph ESE8.0 kmh ESE 10.0 mph16.1 kmh 30.06 in1017.9 mb 0.16 in4.1 mm 0.00 in0.0 mm 0.82 in20.8 mm
10:48 AM 54.1°F12.3°C 51.2°F10.7°C 90% 5.0 mph ESE8.0 kmh ESE 10.0 mph16.1 kmh 30.06 in1017.9 mb 0.16 in4.1 mm 0.00 in0.0 mm 0.82 in20.8 mm
10:50 AM 54.2°F12.3°C 51.3°F10.7°C 90% 10.0 mph SE16.1 kmh SE 10.0 mph16.1 kmh 30.06 in1017.9 mb 0.16 in4.1 mm 0.00 in0.0 mm 0.82 in20.8 mm
10:52 AM 54.2°F12.3°C 51.3°F10.7°C 90% 6.0 mph SE9.7 kmh SE 10.0 mph16.1 kmh 30.06 in1017.9 mb 0.16 in4.1 mm 0.00 in0.0 mm 0.89 in22.6 mm
10:54 AM 54.2°F12.3°C 51.3°F10.7°C 90% 6.0 mph SE9.7 kmh SE 10.0 mph16.1 kmh 30.06 in1017.9 mb 0.16 in4.1 mm 0.00 in0.0 mm 0.89 in22.6 mm
10:56 AM 54.4°F12.4°C 51.5°F10.8°C 90% 5.0 mph E8.0 kmh E 10.0 mph16.1 kmh 30.06 in1017.9 mb 0.16 in4.1 mm 0.00 in0.0 mm 0.89 in22.6 mm
10:58 AM 54.4°F12.4°C 51.5°F10.8°C 90% 5.0 mph E8.0 kmh E 10.0 mph16.1 kmh 30.06 in1017.9 mb 0.16 in4.1 mm 0.00 in0.0 mm 0.89 in22.6 mm
11:00 AM 54.4°F12.4°C 51.5°F10.8°C 90% 4.0 mph SSE6.4 kmh SSE 10.0 mph16.1 kmh 30.06 in1017.9 mb 0.16 in4.1 mm 0.00 in0.0 mm 0.89 in22.6 mm
11:02 AM 54.4°F12.4°C 51.5°F10.8°C 90% 2.0 mph SSE3.2 kmh SSE 10.0 mph16.1 kmh 30.06 in1017.9 mb 0.16 in4.1 mm 0.00 in0.0 mm 0.89 in22.6 mm
11:04 AM 54.4°F12.4°C 51.5°F10.8°C 90% 3.0 mph ENE4.8 kmh ENE 10.0 mph16.1 kmh 30.06 in1017.9 mb 0.16 in4.1 mm 0.00 in0.0 mm 0.89 in22.6 mm
11:06 AM 54.4°F12.4°C 51.5°F10.8°C 90% 7.0 mph ESE11.3 kmh ESE 10.0 mph16.1 kmh 30.06 in1017.9 mb 0.00 in0.0 mm 0.00 in0.0 mm 0.89 in22.6 mm
11:08 AM 54.5°F12.5°C 51.6°F10.9°C 90% 9.0 mph ESE14.5 kmh ESE 10.0 mph16.1 kmh 30.06 in1017.9 mb 0.00 in0.0 mm 0.00 in0.0 mm 0.89 in22.6 mm
11:10 AM 54.7°F12.6°C 51.8°F11.0°C 90% 5.0 mph SE8.0 kmh SE 10.0 mph16.1 kmh 30.06 in1017.9 mb 0.00 in0.0 mm 0.00 in0.0 mm 0.89 in22.6 mm
11:12 AM 54.7°F12.6°C 51.8°F11.0°C 90% 5.0 mph SE8.0 kmh SE 10.0 mph16.1 kmh 30.06 in1017.9 mb 0.00 in0.0 mm 0.00 in0.0 mm 0.89 in22.6 mm
11:14 AM 54.7°F12.6°C 51.8°F11.0°C 90% 5.0 mph SE8.0 kmh SE 10.0 mph16.1 kmh 30.06 in1017.9 mb 0.00 in0.0 mm 0.00 in0.0 mm 0.89 in22.6 mm
11:16 AM 54.7°F12.6°C 51.8°F11.0°C 90% 5.0 mph SE8.0 kmh SE 10.0 mph16.1 kmh 30.06 in1017.9 mb 0.00 in0.0 mm 0.00 in0.0 mm 0.89 in22.6 mm
11:18 AM 54.7°F12.6°C 51.8°F11.0°C 90% 5.0 mph SE8.0 kmh SE 10.0 mph16.1 kmh 30.06 in1017.9 mb 0.00 in0.0 mm 0.00 in0.0 mm 0.89 in22.6 mm
11:20 AM 54.7°F12.6°C 51.8°F11.0°C 90% 6.0 mph E9.7 kmh E 10.0 mph16.1 kmh 30.06 in1017.9 mb 0.00 in0.0 mm 0.00 in0.0 mm 0.89 in22.6 mm
11:22 AM 54.7°F12.6°C 51.5°F10.8°C 89% 5.0 mph ESE8.0 kmh ESE 10.0 mph16.1 kmh 30.06 in1017.9 mb 0.00 in0.0 mm 0.00 in0.0 mm 0.89 in22.6 mm
11:24 AM 55.0°F12.8°C 51.8°F11.0°C 89% 6.0 mph E9.7 kmh E 10.0 mph16.1 kmh 30.06 in1017.9 mb 0.00 in0.0 mm 0.00 in0.0 mm 0.89 in22.6 mm
11:26 AM 55.0°F12.8°C 51.8°F11.0°C 89% 11.0 mph SSE17.7 kmh SSE 11.0 mph17.7 kmh 30.06 in1017.9 mb 0.00 in0.0 mm 0.00 in0.0 mm 0.89 in22.6 mm
11:28 AM 55.0°F12.8°C 51.8°F11.0°C 89% 11.0 mph SSE17.7 kmh SSE 11.0 mph17.7 kmh 30.06 in1017.9 mb 0.00 in0.0 mm 0.00 in0.0 mm 0.89 in22.6 mm
11:30 AM 55.0°F12.8°C 51.8°F11.0°C 89% 11.0 mph E17.7 kmh E 11.0 mph17.7 kmh 30.05 in1017.6 mb 0.00 in0.0 mm 0.00 in0.0 mm 0.89 in22.6 mm
11:32 AM 55.0°F12.8°C 51.8°F11.0°C 89% 8.0 mph SSW12.9 kmh SSW 11.0 mph17.7 kmh 30.05 in1017.6 mb 0.00 in0.0 mm 0.00 in0.0 mm 0.89 in22.6 mm
11:34 AM 55.0°F12.8°C 51.8°F11.0°C 89% 6.0 mph SE9.7 kmh SE 11.0 mph17.7 kmh 30.05 in1017.6 mb 0.00 in0.0 mm 0.00 in0.0 mm 0.89 in22.6 mm
11:36 AM 55.0°F12.8°C 51.8°F11.0°C 89% 3.0 mph SE4.8 kmh SE 11.0 mph17.7 kmh 30.05 in1017.6 mb 0.00 in0.0 mm 0.00 in0.0 mm 0.89 in22.6 mm
11:38 AM 55.0°F12.8°C 51.8°F11.0°C 89% 17.0 mph SE27.4 kmh SE 17.0 mph27.4 kmh 30.05 in1017.6 mb 0.00 in0.0 mm 0.00 in0.0 mm 0.89 in22.6 mm
11:40 AM 55.0°F12.8°C 51.8°F11.0°C 89% 10.0 mph SE16.1 kmh SE 17.0 mph27.4 kmh 30.05 in1017.6 mb 0.00 in0.0 mm 0.00 in0.0 mm 0.89 in22.6 mm
11:42 AM 55.0°F12.8°C 51.8°F11.0°C 89% 10.0 mph SE16.1 kmh SE 17.0 mph27.4 kmh 30.05 in1017.6 mb 0.00 in0.0 mm 0.00 in0.0 mm 0.89 in22.6 mm
11:44 AM 55.0°F12.8°C 51.8°F11.0°C 89% 10.0 mph SE16.1 kmh SE 17.0 mph27.4 kmh 30.05 in1017.6 mb 0.00 in0.0 mm 0.00 in0.0 mm 0.89 in22.6 mm
11:46 AM 55.0°F12.8°C 51.8°F11.0°C 89% 10.0 mph SE16.1 kmh SE 17.0 mph27.4 kmh 30.05 in1017.6 mb 0.00 in0.0 mm 0.00 in0.0 mm 0.89 in22.6 mm
11:48 AM 55.3°F12.9°C 52.1°F11.2°C 89% 14.0 mph SE22.5 kmh SE 17.0 mph27.4 kmh 30.05 in1017.6 mb 0.00 in0.0 mm 0.00 in0.0 mm 0.89 in22.6 mm
11:50 AM 55.3°F12.9°C 52.1°F11.2°C 89% 14.0 mph SE22.5 kmh SE 17.0 mph27.4 kmh 30.05 in1017.6 mb 0.00 in0.0 mm 0.00 in0.0 mm 0.89 in22.6 mm
11:52 AM 55.3°F12.9°C 52.1°F11.2°C 89% 6.0 mph E9.7 kmh E 17.0 mph27.4 kmh 30.05 in1017.6 mb 0.00 in0.0 mm 0.00 in0.0 mm 0.89 in22.6 mm
11:54 AM 55.3°F12.9°C 52.1°F11.2°C 89% 6.0 mph E9.7 kmh E 17.0 mph27.4 kmh 30.05 in1017.6 mb 0.00 in0.0 mm 0.00 in0.0 mm 0.89 in22.6 mm
11:56 AM 55.3°F12.9°C 52.1°F11.2°C 89% 8.0 mph ESE12.9 kmh ESE 17.0 mph27.4 kmh 30.05 in1017.6 mb 0.00 in0.0 mm 0.00 in0.0 mm 0.89 in22.6 mm
11:58 AM 55.3°F12.9°C 52.1°F11.2°C 89% 8.0 mph ESE12.9 kmh ESE 14.0 mph22.5 kmh 30.05 in1017.6 mb 0.00 in0.0 mm 0.00 in0.0 mm 0.89 in22.6 mm
12:00 PM 55.3°F12.9°C 52.1°F11.2°C 89% 21.0 mph SE33.8 kmh SE 21.0 mph33.8 kmh 30.04 in1017.3 mb 0.00 in0.0 mm 0.00 in0.0 mm 0.89 in22.6 mm
12:02 PM 55.6°F13.1°C 52.4°F11.3°C 89% 6.0 mph SE9.7 kmh SE 21.0 mph33.8 kmh 30.04 in1017.3 mb 0.00 in0.0 mm 0.00 in0.0 mm 0.89 in22.6 mm
12:04 PM 55.6°F13.1°C 52.4°F11.3°C 89% 6.0 mph E9.7 kmh E 21.0 mph33.8 kmh 30.04 in1017.3 mb 0.00 in0.0 mm 0.00 in0.0 mm 0.89 in22.6 mm
12:06 PM 55.6°F13.1°C 52.4°F11.3°C 89% 6.0 mph E9.7 kmh E 21.0 mph33.8 kmh 30.04 in1017.3 mb 0.00 in0.0 mm 0.00 in0.0 mm 0.89 in22.6 mm
12:08 PM 55.7°F13.2°C 52.5°F11.4°C 89% 5.0 mph SE8.0 kmh SE 21.0 mph33.8 kmh 30.04 in1017.3 mb 0.00 in0.0 mm 0.00 in0.0 mm 0.89 in22.6 mm
12:10 PM 55.7°F13.2°C 52.5°F11.4°C 89% 6.0 mph SE9.7 kmh SE 21.0 mph33.8 kmh 30.04 in1017.3 mb 0.00 in0.0 mm 0.00 in0.0 mm 0.89 in22.6 mm
12:12 PM 55.7°F13.2°C 52.5°F11.4°C 89% 6.0 mph SE9.7 kmh SE 21.0 mph33.8 kmh 30.04 in1017.3 mb 0.00 in0.0 mm 0.00 in0.0 mm 0.89 in22.6 mm
12:14 PM 55.7°F13.2°C 52.5°F11.4°C 89% 6.0 mph SE9.7 kmh SE 21.0 mph33.8 kmh 30.04 in1017.3 mb 0.00 in0.0 mm 0.00 in0.0 mm 0.89 in22.6 mm
12:16 PM 55.7°F13.2°C 52.5°F11.4°C 89% 10.0 mph E16.1 kmh E 21.0 mph33.8 kmh 30.04 in1017.3 mb 0.00 in0.0 mm 0.00 in0.0 mm 0.89 in22.6 mm
12:18 PM 55.7°F13.2°C 52.5°F11.4°C 89% 10.0 mph E16.1 kmh E 21.0 mph33.8 kmh 30.04 in1017.3 mb 0.00 in0.0 mm 0.00 in0.0 mm 0.89 in22.6 mm
12:20 PM 55.7°F13.2°C 52.5°F11.4°C 89% 5.0 mph SE8.0 kmh SE 10.0 mph16.1 kmh 30.04 in1017.3 mb 0.00 in0.0 mm 0.00 in0.0 mm 0.89 in22.6 mm
12:22 PM 55.7°F13.2°C 52.5°F11.4°C 89% 10.0 mph E16.1 kmh E 10.0 mph16.1 kmh 30.04 in1017.3 mb 0.00 in0.0 mm 0.00 in0.0 mm 0.89 in22.6 mm
12:24 PM 55.7°F13.2°C 52.5°F11.4°C 89% 10.0 mph E16.1 kmh E 10.0 mph16.1 kmh 30.04 in1017.3 mb 0.00 in0.0 mm 0.00 in0.0 mm 0.89 in22.6 mm
12:26 PM 55.7°F13.2°C 52.5°F11.4°C 89% 6.0 mph E9.7 kmh E 10.0 mph16.1 kmh 30.04 in1017.3 mb 0.00 in0.0 mm 0.00 in0.0 mm 0.89 in22.6 mm
12:28 PM 55.7°F13.2°C 52.5°F11.4°C 89% 6.0 mph E9.7 kmh E 10.0 mph16.1 kmh 30.04 in1017.3 mb 0.00 in0.0 mm 0.00 in0.0 mm 0.89 in22.6 mm
12:30 PM 55.7°F13.2°C 52.5°F11.4°C 89% 6.0 mph E9.7 kmh E 10.0 mph16.1 kmh 30.03 in1016.9 mb 0.00 in0.0 mm 0.00 in0.0 mm 0.89 in22.6 mm
12:32 PM 55.7°F13.2°C 52.5°F11.4°C 89% 12.0 mph ESE19.3 kmh ESE 12.0 mph19.3 kmh 30.03 in1016.9 mb 0.00 in0.0 mm 0.00 in0.0 mm 0.89 in22.6 mm
12:34 PM 55.7°F13.2°C 52.5°F11.4°C 89% 12.0 mph ESE19.3 kmh ESE 12.0 mph19.3 kmh 30.03 in1016.9 mb 0.00 in0.0 mm 0.00 in0.0 mm 0.89 in22.6 mm
12:36 PM 55.7°F13.2°C 52.5°F11.4°C 89% 13.0 mph SE20.9 kmh SE 13.0 mph20.9 kmh 30.03 in1016.9 mb 0.00 in0.0 mm 0.00 in0.0 mm 0.89 in22.6 mm
12:38 PM 55.7°F13.2°C 52.5°F11.4°C 89% 13.0 mph SE20.9 kmh SE 13.0 mph20.9 kmh 30.03 in1016.9 mb 0.00 in0.0 mm 0.00 in0.0 mm 0.89 in22.6 mm
12:40 PM 55.7°F13.2°C 52.5°F11.4°C 89% 13.0 mph SE20.9 kmh SE 13.0 mph20.9 kmh 30.03 in1016.9 mb 0.00 in0.0 mm 0.00 in0.0 mm 0.89 in22.6 mm
12:42 PM 56.5°F13.6°C 53.3°F11.8°C 89% 6.0 mph E9.7 kmh E 13.0 mph20.9 kmh 30.03 in1016.9 mb 0.00 in0.0 mm 0.00 in0.0 mm 0.89 in22.6 mm
12:44 PM 56.5°F13.6°C 53.3°F11.8°C 89% 6.0 mph E9.7 kmh E 13.0 mph20.9 kmh 30.03 in1016.9 mb 0.00 in0.0 mm 0.00 in0.0 mm 0.89 in22.6 mm
12:46 PM 56.5°F13.6°C 53.3°F11.8°C 89% 6.0 mph SE9.7 kmh SE 13.0 mph20.9 kmh 30.03 in1016.9 mb 0.00 in0.0 mm 0.00 in0.0 mm 0.89 in22.6 mm
12:48 PM 56.5°F13.6°C 53.3°F11.8°C 89% 6.0 mph SE9.7 kmh SE 13.0 mph20.9 kmh 30.03 in1016.9 mb 0.00 in0.0 mm 0.00 in0.0 mm 0.89 in22.6 mm
12:50 PM 56.5°F13.6°C 53.3°F11.8°C 89% 6.0 mph SE9.7 kmh SE 13.0 mph20.9 kmh 30.03 in1016.9 mb 0.00 in0.0 mm 0.00 in0.0 mm 0.89 in22.6 mm
12:52 PM 56.5°F13.6°C 53.3°F11.8°C 89% 6.0 mph SE9.7 kmh SE 13.0 mph20.9 kmh 30.03 in1016.9 mb 0.00 in0.0 mm 0.00 in0.0 mm 0.89 in22.6 mm
12:54 PM 56.5°F13.6°C 53.3°F11.8°C 89% 5.0 mph SE8.0 kmh SE 13.0 mph20.9 kmh 30.03 in1016.9 mb 0.00 in0.0 mm 0.00 in0.0 mm 0.89 in22.6 mm
12:56 PM 56.5°F13.6°C 53.3°F11.8°C 89% 4.0 mph ESE6.4 kmh ESE 6.0 mph9.7 kmh 30.03 in1016.9 mb 0.00 in0.0 mm 0.00 in0.0 mm 0.89 in22.6 mm
12:58 PM 56.5°F13.6°C 53.3°F11.8°C 89% 8.0 mph SE12.9 kmh SE 8.0 mph12.9 kmh 30.03 in1016.9 mb 0.00 in0.0 mm 0.00 in0.0 mm 0.89 in22.6 mm
01:00 PM 56.5°F13.6°C 53.3°F11.8°C 89% 8.0 mph SE12.9 kmh SE 8.0 mph12.9 kmh 30.03 in1016.9 mb 0.00 in0.0 mm 0.00 in0.0 mm 0.89 in22.6 mm
01:02 PM 56.5°F13.6°C 53.3°F11.8°C 89% 8.0 mph SE12.9 kmh SE 8.0 mph12.9 kmh 30.03 in1016.9 mb 0.00 in0.0 mm 0.00 in0.0 mm 0.89 in22.6 mm
01:04 PM 56.5°F13.6°C 53.3°F11.8°C 89% 8.0 mph SE12.9 kmh SE 8.0 mph12.9 kmh 30.03 in1016.9 mb 0.00 in0.0 mm 0.00 in0.0 mm 0.89 in22.6 mm
01:06 PM 56.5°F13.6°C 53.3°F11.8°C 89% 8.0 mph SE12.9 kmh SE 8.0 mph12.9 kmh 30.03 in1016.9 mb 0.00 in0.0 mm 0.00 in0.0 mm 0.89 in22.6 mm
01:08 PM 56.5°F13.6°C 53.3°F11.8°C 89% 1.0 mph E1.6 kmh E 8.0 mph12.9 kmh 30.03 in1016.9 mb 0.00 in0.0 mm 0.00 in0.0 mm 0.89 in22.6 mm
01:10 PM 56.5°F13.6°C 53.3°F11.8°C 89% 5.0 mph SE8.0 kmh SE 8.0 mph12.9 kmh 30.03 in1016.9 mb 0.00 in0.0 mm 0.00 in0.0 mm 0.89 in22.6 mm
01:12 PM 56.5°F13.6°C 53.3°F11.8°C 89% 6.0 mph ENE9.7 kmh ENE 8.0 mph12.9 kmh 30.03 in1016.9 mb 0.00 in0.0 mm 0.00 in0.0 mm 0.89 in22.6 mm
01:14 PM 56.5°F13.6°C 53.3°F11.8°C 89% 6.0 mph ENE9.7 kmh ENE 8.0 mph12.9 kmh 30.02 in1016.6 mb 0.00 in0.0 mm 0.00 in0.0 mm 0.89 in22.6 mm
01:16 PM 56.5°F13.6°C 53.3°F11.8°C 89% 7.0 mph NE11.3 kmh NE 8.0 mph12.9 kmh 30.02 in1016.6 mb 0.00 in0.0 mm 0.00 in0.0 mm 0.89 in22.6 mm
01:18 PM 56.5°F13.6°C 53.3°F11.8°C 89% 6.0 mph E9.7 kmh E 7.0 mph11.3 kmh 30.02 in1016.6 mb 0.00 in0.0 mm 0.00 in0.0 mm 0.89 in22.6 mm
01:20 PM 56.5°F13.6°C 53.3°F11.8°C 89% 11.0 mph E17.7 kmh E 11.0 mph17.7 kmh 30.02 in1016.6 mb 0.00 in0.0 mm 0.00 in0.0 mm 0.89 in22.6 mm
01:22 PM 56.5°F13.6°C 53.3°F11.8°C 89% 11.0 mph E17.7 kmh E 11.0 mph17.7 kmh 30.02 in1016.6 mb 0.00 in0.0 mm 0.00 in0.0 mm 0.89 in22.6 mm
01:24 PM 56.5°F13.6°C 53.3°F11.8°C 89% 11.0 mph E17.7 kmh E 11.0 mph17.7 kmh 30.02 in1016.6 mb 0.00 in0.0 mm 0.00 in0.0 mm 0.89 in22.6 mm
01:26 PM 56.5°F13.6°C 53.3°F11.8°C 89% 11.0 mph E17.7 kmh E 11.0 mph17.7 kmh 30.02 in1016.6 mb 0.00 in0.0 mm 0.00 in0.0 mm 0.89 in22.6 mm
01:28 PM 56.5°F13.6°C 53.3°F11.8°C 89% 11.0 mph E17.7 kmh E 11.0 mph17.7 kmh 30.02 in1016.6 mb 0.00 in0.0 mm 0.00 in0.0 mm 0.89 in22.6 mm
01:30 PM 56.0°F13.3°C 52.8°F11.6°C 89% 3.0 mph SE4.8 kmh SE 11.0 mph17.7 kmh 30.02 in1016.6 mb 0.00 in0.0 mm 0.00 in0.0 mm 0.89 in22.6 mm
01:32 PM 56.0°F13.3°C 52.8°F11.6°C 89% 2.0 mph E3.2 kmh E 11.0 mph17.7 kmh 30.02 in1016.6 mb 0.00 in0.0 mm 0.00 in0.0 mm 0.93 in23.6 mm
01:34 PM 56.0°F13.3°C 52.8°F11.6°C 89% 8.0 mph ESE12.9 kmh ESE 11.0 mph17.7 kmh 30.02 in1016.6 mb 0.21 in5.3 mm 6.30 in160.0 mm 0.93 in23.6 mm
01:36 PM 56.5°F13.6°C 53.3°F11.8°C 89% 5.0 mph E8.0 kmh E 11.0 mph17.7 kmh 30.02 in1016.6 mb 0.21 in5.3 mm 0.00 in0.0 mm 0.93 in23.6 mm
01:38 PM 56.5°F13.6°C 53.3°F11.8°C 89% 5.0 mph E8.0 kmh E 11.0 mph17.7 kmh 30.02 in1016.6 mb 0.21 in5.3 mm 0.00 in0.0 mm 0.93 in23.6 mm
01:40 PM 56.5°F13.6°C 52.7°F11.5°C 87% 9.0 mph E14.5 kmh E 9.0 mph14.5 kmh 30.02 in1016.6 mb 0.21 in5.3 mm 0.00 in0.0 mm 0.93 in23.6 mm
01:42 PM 56.5°F13.6°C 52.7°F11.5°C 87% 12.0 mph SE19.3 kmh SE 12.0 mph19.3 kmh 30.02 in1016.6 mb 0.21 in5.3 mm 0.00 in0.0 mm 0.93 in23.6 mm
01:44 PM 56.2°F13.4°C 52.4°F11.3°C 87% 3.0 mph SE4.8 kmh SE 12.0 mph19.3 kmh 30.00 in1015.9 mb 0.21 in5.3 mm 0.00 in0.0 mm 0.93 in23.6 mm
01:46 PM 56.2°F13.4°C 52.4°F11.3°C 87% Calm Calm 12.0 mph19.3 kmh 30.00 in1015.9 mb 0.11 in2.8 mm 0.00 in0.0 mm 0.93 in23.6 mm
01:48 PM 56.2°F13.4°C 52.4°F11.3°C 87% 5.0 mph WSW8.0 kmh WSW 5.0 mph8.0 kmh 30.00 in1015.9 mb 0.08 in2.0 mm 0.00 in0.0 mm 0.93 in23.6 mm
01:50 PM 56.2°F13.4°C 52.4°F11.3°C 87% 5.0 mph WSW8.0 kmh WSW 5.0 mph8.0 kmh 30.00 in1015.9 mb 0.08 in2.0 mm 0.00 in0.0 mm 0.93 in23.6 mm
01:52 PM 56.2°F13.4°C 52.4°F11.3°C 87% 5.0 mph W8.0 kmh W 5.0 mph8.0 kmh 30.00 in1015.9 mb 0.08 in2.0 mm 0.00 in0.0 mm 0.93 in23.6 mm
01:54 PM 56.2°F13.4°C 52.4°F11.3°C 87% 5.0 mph W8.0 kmh W 5.0 mph8.0 kmh 30.00 in1015.9 mb 0.08 in2.0 mm 0.00 in0.0 mm 0.96 in24.4 mm
01:56 PM 56.0°F13.3°C 52.2°F11.2°C 87% 2.0 mph WSW3.2 kmh WSW 5.0 mph8.0 kmh 30.00 in1015.9 mb 0.08 in2.0 mm 0.00 in0.0 mm 0.96 in24.4 mm
01:58 PM 56.0°F13.3°C 52.2°F11.2°C 87% 2.0 mph WSW3.2 kmh WSW 12.0 mph19.3 kmh 30.00 in1015.9 mb 0.08 in2.0 mm 0.00 in0.0 mm 0.96 in24.4 mm
02:00 PM 56.0°F13.3°C 52.2°F11.2°C 87% 5.0 mph ENE8.0 kmh ENE 12.0 mph19.3 kmh 30.01 in1016.3 mb 0.08 in2.0 mm 0.00 in0.0 mm 0.96 in24.4 mm
02:02 PM 55.7°F13.2°C 51.9°F11.1°C 87% 3.0 mph E4.8 kmh E 12.0 mph19.3 kmh 30.01 in1016.3 mb 0.05 in1.3 mm 0.00 in0.0 mm 0.96 in24.4 mm
02:04 PM 55.7°F13.2°C 51.9°F11.1°C 87% Calm Calm 12.0 mph19.3 kmh 30.01 in1016.3 mb 0.05 in1.3 mm 0.00 in0.0 mm 0.96 in24.4 mm
02:06 PM 55.7°F13.2°C 51.9°F11.1°C 87% Calm Calm -- 30.01 in1016.3 mb 0.05 in1.3 mm 0.00 in0.0 mm 0.96 in24.4 mm
02:08 PM 55.6°F13.1°C 51.8°F11.0°C 87% Calm Calm 5.0 mph8.0 kmh 30.01 in1016.3 mb 0.05 in1.3 mm 0.00 in0.0 mm 0.97 in24.6 mm
02:10 PM 55.6°F13.1°C 51.8°F11.0°C 87% Calm Calm -- 30.01 in1016.3 mb 0.05 in1.3 mm 0.00 in0.0 mm 0.97 in24.6 mm
02:12 PM 55.6°F13.1°C 51.8°F11.0°C 87% Calm Calm -- 30.01 in1016.3 mb 0.05 in1.3 mm 0.00 in0.0 mm 0.97 in24.6 mm
02:14 PM 55.6°F13.1°C 51.8°F11.0°C 87% 2.0 mph E3.2 kmh E 2.0 mph3.2 kmh 29.98 in1015.2 mb 0.05 in1.3 mm 0.00 in0.0 mm 0.97 in24.6 mm
02:16 PM 55.6°F13.1°C 51.8°F11.0°C 87% 2.0 mph E3.2 kmh E 2.0 mph3.2 kmh 29.98 in1015.2 mb 0.05 in1.3 mm 0.00 in0.0 mm 0.97 in24.6 mm
02:18 PM 55.6°F13.1°C 52.7°F11.5°C 90% 11.0 mph SE17.7 kmh SE 11.0 mph17.7 kmh 29.98 in1015.2 mb 0.05 in1.3 mm 0.00 in0.0 mm 0.97 in24.6 mm
02:20 PM 55.6°F13.1°C 52.7°F11.5°C 90% 3.0 mph SE4.8 kmh SE 11.0 mph17.7 kmh 29.98 in1015.2 mb 0.05 in1.3 mm 0.00 in0.0 mm 0.97 in24.6 mm
02:22 PM 55.6°F13.1°C 52.7°F11.5°C 90% 3.0 mph SE4.8 kmh SE 11.0 mph17.7 kmh 29.98 in1015.2 mb 0.05 in1.3 mm 0.00 in0.0 mm 0.97 in24.6 mm
02:24 PM 56.5°F13.6°C 53.6°F12.0°C 90% 7.0 mph E11.3 kmh E 11.0 mph17.7 kmh 29.98 in1015.2 mb 0.05 in1.3 mm 0.00 in0.0 mm 0.97 in24.6 mm
02:26 PM 56.6°F13.7°C 53.4°F11.9°C 89% 13.0 mph SE20.9 kmh SE 13.0 mph20.9 kmh 29.98 in1015.2 mb 0.09 in2.3 mm 1.20 in30.5 mm 0.99 in25.1 mm
02:28 PM 56.6°F13.7°C 53.4°F11.9°C 89% 2.0 mph WSW3.2 kmh WSW 18.0 mph29.0 kmh 29.98 in1015.2 mb 0.09 in2.3 mm 0.00 in0.0 mm 0.99 in25.1 mm
02:30 PM 56.6°F13.7°C 53.1°F11.7°C 88% 4.0 mph SSW6.4 kmh SSW 18.0 mph29.0 kmh 30.00 in1015.9 mb 0.07 in1.8 mm 0.00 in0.0 mm 0.99 in25.1 mm
02:32 PM 56.6°F13.7°C 53.1°F11.7°C 88% 6.0 mph SW9.7 kmh SW 18.0 mph29.0 kmh 30.00 in1015.9 mb 0.07 in1.8 mm 0.00 in0.0 mm 1.00 in25.4 mm
02:34 PM 56.6°F13.7°C 53.1°F11.7°C 88% 1.0 mph WSW1.6 kmh WSW 18.0 mph29.0 kmh 30.00 in1015.9 mb 0.07 in1.8 mm 0.00 in0.0 mm 1.00 in25.4 mm
02:36 PM 56.6°F13.7°C 53.1°F11.7°C 88% 1.0 mph WSW1.6 kmh WSW 18.0 mph29.0 kmh 30.00 in1015.9 mb 0.07 in1.8 mm 0.00 in0.0 mm 1.00 in25.4 mm
02:38 PM 56.6°F13.7°C 53.1°F11.7°C 88% 1.0 mph WSW1.6 kmh WSW 18.0 mph29.0 kmh 30.00 in1015.9 mb 0.07 in1.8 mm 0.00 in0.0 mm 1.00 in25.4 mm
02:40 PM 56.5°F13.6°C 53.0°F11.7°C 88% Calm Calm 18.0 mph29.0 kmh 30.00 in1015.9 mb 0.07 in1.8 mm 0.00 in0.0 mm 1.00 in25.4 mm
02:42 PM 56.5°F13.6°C 53.0°F11.7°C 88% Calm Calm -- 30.00 in1015.9 mb 0.07 in1.8 mm 0.00 in0.0 mm 1.00 in25.4 mm
02:44 PM 56.5°F13.6°C 53.0°F11.7°C 88% Calm Calm -- 30.01 in1016.3 mb 0.06 in1.5 mm 0.00 in0.0 mm 1.01 in25.7 mm
02:46 PM 56.5°F13.6°C 53.0°F11.7°C 88% Calm Calm -- 30.01 in1016.3 mb 0.06 in1.5 mm 0.00 in0.0 mm 1.01 in25.7 mm
02:48 PM 56.5°F13.6°C 53.0°F11.7°C 88% Calm Calm 3.0 mph4.8 kmh 30.01 in1016.3 mb 0.06 in1.5 mm 0.00 in0.0 mm 1.01 in25.7 mm
02:50 PM 56.5°F13.6°C 53.0°F11.7°C 88% 2.0 mph SE3.2 kmh SE 2.0 mph3.2 kmh 30.01 in1016.3 mb 0.06 in1.5 mm 0.00 in0.0 mm 1.01 in25.7 mm
02:52 PM 56.3°F13.5°C 52.8°F11.6°C 88% 2.0 mph E3.2 kmh E 2.0 mph3.2 kmh 30.01 in1016.3 mb 0.06 in1.5 mm 0.00 in0.0 mm 1.01 in25.7 mm
02:54 PM 56.3°F13.5°C 52.8°F11.6°C 88% 2.0 mph E3.2 kmh E 2.0 mph3.2 kmh 30.01 in1016.3 mb 0.06 in1.5 mm 0.00 in0.0 mm 1.01 in25.7 mm
02:56 PM 56.3°F13.5°C 52.8°F11.6°C 88% 13.0 mph SE20.9 kmh SE 13.0 mph20.9 kmh 30.01 in1016.3 mb 0.06 in1.5 mm 0.00 in0.0 mm 1.01 in25.7 mm
02:58 PM 56.3°F13.5°C 52.8°F11.6°C 88% 13.0 mph SE20.9 kmh SE 13.0 mph20.9 kmh 30.01 in1016.3 mb 0.06 in1.5 mm 0.00 in0.0 mm 1.01 in25.7 mm
03:00 PM 56.2°F13.4°C 52.7°F11.5°C 88% Calm Calm 13.0 mph20.9 kmh 30.00 in1015.9 mb 0.13 in3.3 mm 0.07 in1.8 mm 1.01 in25.7 mm
03:02 PM 56.0°F13.3°C 52.5°F11.4°C 88% 1.0 mph SSE1.6 kmh SSE 1.0 mph1.6 kmh 30.00 in1015.9 mb 0.10 in2.5 mm 0.00 in0.0 mm 1.04 in26.4 mm
03:04 PM 56.0°F13.3°C 52.5°F11.4°C 88% 1.0 mph SSE1.6 kmh SSE 1.0 mph1.6 kmh 30.00 in1015.9 mb 0.10 in2.5 mm 0.00 in0.0 mm 1.04 in26.4 mm
03:06 PM 56.0°F13.3°C 52.5°F11.4°C 88% 1.0 mph SSE1.6 kmh SSE 1.0 mph1.6 kmh 30.00 in1015.9 mb 0.10 in2.5 mm 0.00 in0.0 mm 1.04 in26.4 mm
03:08 PM 56.0°F13.3°C 52.5°F11.4°C 88% 1.0 mph SSE1.6 kmh SSE 1.0 mph1.6 kmh 30.00 in1015.9 mb 0.10 in2.5 mm 0.00 in0.0 mm 1.04 in26.4 mm
03:10 PM 56.0°F13.3°C 52.5°F11.4°C 88% 1.0 mph SSE1.6 kmh SSE 1.0 mph1.6 kmh 30.00 in1015.9 mb 0.10 in2.5 mm 0.00 in0.0 mm 1.04 in26.4 mm
03:12 PM 56.2°F13.4°C 52.7°F11.5°C 88% Calm Calm 1.0 mph1.6 kmh 30.00 in1015.9 mb 0.10 in2.5 mm 0.00 in0.0 mm 1.04 in26.4 mm
03:14 PM 56.2°F13.4°C 52.7°F11.5°C 88% Calm Calm -- 30.00 in1015.9 mb 0.04 in1.0 mm 0.00 in0.0 mm 1.04 in26.4 mm
03:16 PM 56.2°F13.4°C 52.7°F11.5°C 88% Calm Calm -- 30.00 in1015.9 mb 0.04 in1.0 mm 0.00 in0.0 mm 1.04 in26.4 mm
03:18 PM 56.2°F13.4°C 52.7°F11.5°C 88% Calm Calm -- 30.00 in1015.9 mb 0.04 in1.0 mm 0.00 in0.0 mm 1.04 in26.4 mm
03:20 PM 56.2°F13.4°C 52.7°F11.5°C 88% Calm Calm -- 30.00 in1015.9 mb 0.04 in1.0 mm 0.00 in0.0 mm 1.04 in26.4 mm
03:22 PM 56.2°F13.4°C 52.7°F11.5°C 88% 2.0 mph ESE3.2 kmh ESE 2.0 mph3.2 kmh 30.00 in1015.9 mb 0.04 in1.0 mm 0.00 in0.0 mm 1.04 in26.4 mm
03:24 PM 56.2°F13.4°C 52.7°F11.5°C 88% 2.0 mph ESE3.2 kmh ESE 2.0 mph3.2 kmh 30.00 in1015.9 mb 0.04 in1.0 mm 0.00 in0.0 mm 1.04 in26.4 mm
03:26 PM 56.2°F13.4°C 52.7°F11.5°C 88% 3.0 mph E4.8 kmh E 3.0 mph4.8 kmh 30.00 in1015.9 mb 0.04 in1.0 mm 0.00 in0.0 mm 1.04 in26.4 mm
03:28 PM 56.0°F13.3°C 52.5°F11.4°C 88% 4.0 mph SE6.4 kmh SE 4.0 mph6.4 kmh 30.00 in1015.9 mb 0.04 in1.0 mm 0.00 in0.0 mm 1.04 in26.4 mm
03:30 PM 56.0°F13.3°C 52.5°F11.4°C 88% 1.0 mph SE1.6 kmh SE 4.0 mph6.4 kmh 30.01 in1016.3 mb 0.04 in1.0 mm 0.00 in0.0 mm 1.04 in26.4 mm
03:32 PM 56.2°F13.4°C 52.7°F11.5°C 88% Calm Calm 4.0 mph6.4 kmh 30.01 in1016.3 mb 0.04 in1.0 mm 0.00 in0.0 mm 1.04 in26.4 mm
03:34 PM 56.2°F13.4°C 52.7°F11.5°C 88% Calm Calm 4.0 mph6.4 kmh 30.01 in1016.3 mb 0.00 in0.0 mm 0.00 in0.0 mm 1.04 in26.4 mm
03:36 PM 56.2°F13.4°C 52.7°F11.5°C 88% 1.0 mph ESE1.6 kmh ESE 4.0 mph6.4 kmh 30.01 in1016.3 mb 0.00 in0.0 mm 0.00 in0.0 mm 1.04 in26.4 mm
03:38 PM 56.2°F13.4°C 52.7°F11.5°C 88% 1.0 mph ESE1.6 kmh ESE 4.0 mph6.4 kmh 30.01 in1016.3 mb 0.00 in0.0 mm 0.00 in0.0 mm 1.04 in26.4 mm
03:40 PM 56.2°F13.4°C 52.7°F11.5°C 88% 3.0 mph ESE4.8 kmh ESE 4.0 mph6.4 kmh 30.01 in1016.3 mb 0.00 in0.0 mm 0.00 in0.0 mm 1.04 in26.4 mm
03:42 PM 56.5°F13.6°C 53.0°F11.7°C 88% 3.0 mph ESE4.8 kmh ESE 4.0 mph6.4 kmh 30.01 in1016.3 mb 0.00 in0.0 mm 0.00 in0.0 mm 1.04 in26.4 mm
03:44 PM 56.5°F13.6°C 53.0°F11.7°C 88% 4.0 mph ESE6.4 kmh ESE 4.0 mph6.4 kmh 30.02 in1016.6 mb 0.00 in0.0 mm 0.00 in0.0 mm 1.04 in26.4 mm
03:46 PM 56.5°F13.6°C 53.0°F11.7°C 88% 4.0 mph ESE6.4 kmh ESE 4.0 mph6.4 kmh 30.02 in1016.6 mb 0.00 in0.0 mm 0.00 in0.0 mm 1.04 in26.4 mm
03:48 PM 56.6°F13.7°C 53.1°F11.7°C 88% 5.0 mph E8.0 kmh E 5.0 mph8.0 kmh 30.02 in1016.6 mb 0.00 in0.0 mm 0.00 in0.0 mm 1.04 in26.4 mm
03:50 PM 56.6°F13.7°C 53.4°F11.9°C 89% 5.0 mph ESE8.0 kmh ESE 5.0 mph8.0 kmh 30.02 in1016.6 mb 0.00 in0.0 mm 0.00 in0.0 mm 1.04 in26.4 mm
03:52 PM 56.6°F13.7°C 53.4°F11.9°C 89% 3.0 mph ESE4.8 kmh ESE 6.0 mph9.7 kmh 30.02 in1016.6 mb 0.00 in0.0 mm 0.00 in0.0 mm 1.04 in26.4 mm
03:54 PM 56.6°F13.7°C 53.4°F11.9°C 89% 3.0 mph ESE4.8 kmh ESE 6.0 mph9.7 kmh 30.02 in1016.6 mb 0.00 in0.0 mm 0.00 in0.0 mm 1.04 in26.4 mm
03:56 PM 56.6°F13.7°C 53.4°F11.9°C 89% 3.0 mph ESE4.8 kmh ESE 6.0 mph9.7 kmh 30.02 in1016.6 mb 0.00 in0.0 mm 0.00 in0.0 mm 1.04 in26.4 mm
03:58 PM 56.6°F13.7°C 53.4°F11.9°C 89% 2.0 mph ESE3.2 kmh ESE 7.0 mph11.3 kmh 30.02 in1016.6 mb 0.00 in0.0 mm 0.00 in0.0 mm 1.04 in26.4 mm
04:00 PM 56.7°F13.7°C 53.5°F11.9°C 89% 12.0 mph ESE19.3 kmh ESE 12.0 mph19.3 kmh 30.02 in1016.6 mb 0.00 in0.0 mm 0.00 in0.0 mm 1.04 in26.4 mm
04:02 PM 56.7°F13.7°C 53.5°F11.9°C 89% 12.0 mph ESE19.3 kmh ESE 12.0 mph19.3 kmh 30.02 in1016.6 mb 0.00 in0.0 mm 0.00 in0.0 mm 1.04 in26.4 mm
04:04 PM 56.7°F13.7°C 53.5°F11.9°C 89% 6.0 mph SE9.7 kmh SE 12.0 mph19.3 kmh 30.02 in1016.6 mb 0.00 in0.0 mm 0.00 in0.0 mm 1.04 in26.4 mm
04:06 PM 56.7°F13.7°C 53.5°F11.9°C 89% 6.0 mph SE9.7 kmh SE 12.0 mph19.3 kmh 30.02 in1016.6 mb 0.00 in0.0 mm 0.00 in0.0 mm 1.04 in26.4 mm
04:08 PM 56.7°F13.7°C 53.5°F11.9°C 89% 6.0 mph ENE9.7 kmh ENE 12.0 mph19.3 kmh 30.02 in1016.6 mb 0.00 in0.0 mm 0.00 in0.0 mm 1.04 in26.4 mm
04:10 PM 56.7°F13.7°C 53.5°F11.9°C 89% 10.0 mph SE16.1 kmh SE 12.0 mph19.3 kmh 30.02 in1016.6 mb 0.00 in0.0 mm 0.00 in0.0 mm 1.04 in26.4 mm
04:12 PM 56.7°F13.7°C 53.5°F11.9°C 89% 5.0 mph SE8.0 kmh SE 12.0 mph19.3 kmh 30.02 in1016.6 mb 0.00 in0.0 mm 0.00 in0.0 mm 1.04 in26.4 mm
04:14 PM 56.7°F13.7°C 53.5°F11.9°C 89% 12.0 mph SE19.3 kmh SE 12.0 mph19.3 kmh 30.01 in1016.3 mb 0.00 in0.0 mm 0.00 in0.0 mm 1.04 in26.4 mm
04:16 PM 56.7°F13.7°C 53.5°F11.9°C 89% 12.0 mph SE19.3 kmh SE 12.0 mph19.3 kmh 30.01 in1016.3 mb 0.00 in0.0 mm 0.00 in0.0 mm 1.04 in26.4 mm
04:18 PM 56.7°F13.7°C 53.5°F11.9°C 89% 8.0 mph E12.9 kmh E 12.0 mph19.3 kmh 30.01 in1016.3 mb 0.00 in0.0 mm 0.00 in0.0 mm 1.04 in26.4 mm
04:20 PM 56.7°F13.7°C 53.5°F11.9°C 89% 8.0 mph E12.9 kmh E 12.0 mph19.3 kmh 30.01 in1016.3 mb 0.00 in0.0 mm 0.00 in0.0 mm 1.04 in26.4 mm
04:22 PM 56.7°F13.7°C 53.5°F11.9°C 89% 7.0 mph E11.3 kmh E 12.0 mph19.3 kmh 30.01 in1016.3 mb 0.00 in0.0 mm 0.00 in0.0 mm 1.04 in26.4 mm
04:24 PM 56.7°F13.7°C 53.5°F11.9°C 89% 12.0 mph SE19.3 kmh SE 12.0 mph19.3 kmh 30.01 in1016.3 mb 0.00 in0.0 mm 0.00 in0.0 mm 1.04 in26.4 mm
04:26 PM 56.7°F13.7°C 53.5°F11.9°C 89% 12.0 mph SE19.3 kmh SE 12.0 mph19.3 kmh 30.01 in1016.3 mb 0.00 in0.0 mm 0.00 in0.0 mm 1.04 in26.4 mm
04:28 PM 56.7°F13.7°C 53.5°F11.9°C 89% 12.0 mph SE19.3 kmh SE 12.0 mph19.3 kmh 30.01 in1016.3 mb 0.00 in0.0 mm 0.00 in0.0 mm 1.04 in26.4 mm
04:30 PM 56.7°F13.7°C 53.5°F11.9°C 89% 12.0 mph SE19.3 kmh SE 12.0 mph19.3 kmh 30.01 in1016.3 mb 0.00 in0.0 mm 0.00 in0.0 mm 1.04 in26.4 mm
04:32 PM 56.7°F13.7°C 52.9°F11.6°C 87% 10.0 mph SE16.1 kmh SE 12.0 mph19.3 kmh 30.01 in1016.3 mb 0.00 in0.0 mm 0.00 in0.0 mm 1.04 in26.4 mm
04:34 PM 56.7°F13.7°C 52.9°F11.6°C 87% 10.0 mph SE16.1 kmh SE 12.0 mph19.3 kmh 30.01 in1016.3 mb 0.00 in0.0 mm 0.00 in0.0 mm 1.04 in26.4 mm
04:36 PM 56.7°F13.7°C 52.9°F11.6°C 87% 10.0 mph SE16.1 kmh SE 12.0 mph19.3 kmh 30.01 in1016.3 mb 0.00 in0.0 mm 0.00 in0.0 mm 1.04 in26.4 mm
04:38 PM 56.7°F13.7°C 52.9°F11.6°C 87% 10.0 mph SE16.1 kmh SE 12.0 mph19.3 kmh 30.01 in1016.3 mb 0.00 in0.0 mm 0.00 in0.0 mm 1.04 in26.4 mm
04:40 PM 56.7°F13.7°C 52.9°F11.6°C 87% 10.0 mph SE16.1 kmh SE 12.0 mph19.3 kmh 30.01 in1016.3 mb 0.00 in0.0 mm 0.00 in0.0 mm 1.04 in26.4 mm
04:42 PM 57.0°F13.9°C 53.2°F11.8°C 87% 6.0 mph SE9.7 kmh SE 12.0 mph19.3 kmh 30.01 in1016.3 mb 0.00 in0.0 mm 0.00 in0.0 mm 1.04 in26.4 mm
04:44 PM 57.0°F13.9°C 53.2°F11.8°C 87% 6.0 mph SE9.7 kmh SE 12.0 mph19.3 kmh 30.02 in1016.6 mb 0.00 in0.0 mm 0.00 in0.0 mm 1.04 in26.4 mm
04:46 PM 57.0°F13.9°C 53.2°F11.8°C 87% 6.0 mph SE9.7 kmh SE 12.0 mph19.3 kmh 30.02 in1016.6 mb 0.00 in0.0 mm 0.00 in0.0 mm 1.04 in26.4 mm
04:48 PM 57.0°F13.9°C 53.2°F11.8°C 87% 6.0 mph SE9.7 kmh SE 12.0 mph19.3 kmh 30.02 in1016.6 mb 0.00 in0.0 mm 0.00 in0.0 mm 1.04 in26.4 mm
04:50 PM 57.0°F13.9°C 53.2°F11.8°C 87% 6.0 mph SE9.7 kmh SE 11.0 mph17.7 kmh 30.02 in1016.6 mb 0.00 in0.0 mm 0.00 in0.0 mm 1.04 in26.4 mm
04:52 PM 57.0°F13.9°C 53.2°F11.8°C 87% 6.0 mph SE9.7 kmh SE 11.0 mph17.7 kmh 30.02 in1016.6 mb 0.00 in0.0 mm 0.00 in0.0 mm 1.04 in26.4 mm
04:54 PM 57.0°F13.9°C 53.2°F11.8°C 87% 6.0 mph SE9.7 kmh SE 11.0 mph17.7 kmh 30.02 in1016.6 mb 0.00 in0.0 mm 0.00 in0.0 mm 1.04 in26.4 mm
04:56 PM 57.0°F13.9°C 53.2°F11.8°C 87% 6.0 mph SE9.7 kmh SE 11.0 mph17.7 kmh 30.02 in1016.6 mb 0.00 in0.0 mm 0.00 in0.0 mm 1.04 in26.4 mm
04:58 PM 57.0°F13.9°C 53.2°F11.8°C 87% 1.0 mph ESE1.6 kmh ESE 11.0 mph17.7 kmh 30.02 in1016.6 mb 0.00 in0.0 mm 0.00 in0.0 mm 1.04 in26.4 mm
05:00 PM 57.0°F13.9°C 53.2°F11.8°C 87% 1.0 mph ESE1.6 kmh ESE 6.0 mph9.7 kmh 30.03 in1016.9 mb 0.00 in0.0 mm 0.00 in0.0 mm 1.04 in26.4 mm
05:02 PM 57.0°F13.9°C 53.2°F11.8°C 87% 1.0 mph ESE1.6 kmh ESE 6.0 mph9.7 kmh 30.03 in1016.9 mb 0.00 in0.0 mm 0.00 in0.0 mm 1.04 in26.4 mm
05:04 PM 57.0°F13.9°C 53.2°F11.8°C 87% 1.0 mph ESE1.6 kmh ESE 6.0 mph9.7 kmh 30.03 in1016.9 mb 0.00 in0.0 mm 0.00 in0.0 mm 1.04 in26.4 mm
05:06 PM 57.0°F13.9°C 53.2°F11.8°C 87% Calm Calm 6.0 mph9.7 kmh 30.03 in1016.9 mb 0.00 in0.0 mm 0.00 in0.0 mm 1.04 in26.4 mm
05:08 PM 57.0°F13.9°C 53.2°F11.8°C 87% 5.0 mph E8.0 kmh E 5.0 mph8.0 kmh 30.03 in1016.9 mb 0.00 in0.0 mm 0.00 in0.0 mm 1.04 in26.4 mm
05:10 PM 57.0°F13.9°C 52.2°F11.2°C 84% 2.0 mph ESE3.2 kmh ESE 5.0 mph8.0 kmh 30.03 in1016.9 mb 0.00 in0.0 mm 0.00 in0.0 mm 1.04 in26.4 mm
05:12 PM 57.0°F13.9°C 52.2°F11.2°C 84% 2.0 mph ESE3.2 kmh ESE 5.0 mph8.0 kmh 30.03 in1016.9 mb 0.00 in0.0 mm 0.00 in0.0 mm 1.04 in26.4 mm
05:14 PM 57.0°F13.9°C 52.2°F11.2°C 84% 1.0 mph SE1.6 kmh SE 5.0 mph8.0 kmh 30.04 in1017.3 mb 0.00 in0.0 mm 0.00 in0.0 mm 1.04 in26.4 mm
05:16 PM 57.0°F13.9°C 52.2°F11.2°C 84% 1.0 mph SE1.6 kmh SE 5.0 mph8.0 kmh 30.04 in1017.3 mb 0.00 in0.0 mm 0.00 in0.0 mm 1.04 in26.4 mm
05:18 PM 57.0°F13.9°C 52.2°F11.2°C 84% 1.0 mph SE1.6 kmh SE 5.0 mph8.0 kmh 30.04 in1017.3 mb 0.00 in0.0 mm 0.00 in0.0 mm 1.04 in26.4 mm
05:20 PM 57.0°F13.9°C 52.2°F11.2°C 84% 5.0 mph ESE8.0 kmh ESE 5.0 mph8.0 kmh 30.04 in1017.3 mb 0.00 in0.0 mm 0.00 in0.0 mm 1.04 in26.4 mm
05:22 PM 57.0°F13.9°C 52.2°F11.2°C 84% 7.0 mph S11.3 kmh S 7.0 mph11.3 kmh 30.04 in1017.3 mb 0.00 in0.0 mm 0.00 in0.0 mm 1.04 in26.4 mm
05:24 PM 57.0°F13.9°C 52.2°F11.2°C 84% 6.0 mph NE9.7 kmh NE 7.0 mph11.3 kmh 30.04 in1017.3 mb 0.00 in0.0 mm 0.00 in0.0 mm 1.04 in26.4 mm
05:26 PM 57.0°F13.9°C 52.2°F11.2°C 84% 6.0 mph NE9.7 kmh NE 7.0 mph11.3 kmh 30.04 in1017.3 mb 0.00 in0.0 mm 0.00 in0.0 mm 1.04 in26.4 mm
05:28 PM 57.0°F13.9°C 52.2°F11.2°C 84% 6.0 mph NE9.7 kmh NE 7.0 mph11.3 kmh 30.04 in1017.3 mb 0.00 in0.0 mm 0.00 in0.0 mm 1.04 in26.4 mm
05:30 PM 57.0°F13.9°C 52.2°F11.2°C 84% 6.0 mph NE9.7 kmh NE 7.0 mph11.3 kmh 30.04 in1017.3 mb 0.00 in0.0 mm 0.00 in0.0 mm 1.04 in26.4 mm
05:32 PM 57.0°F13.9°C 52.2°F11.2°C 84% 6.0 mph NE9.7 kmh NE 7.0 mph11.3 kmh 30.04 in1017.3 mb 0.00 in0.0 mm 0.00 in0.0 mm 1.04 in26.4 mm
05:34 PM 57.0°F13.9°C 52.2°F11.2°C 84% 10.0 mph ESE16.1 kmh ESE 10.0 mph16.1 kmh 30.04 in1017.3 mb 0.00 in0.0 mm 0.00 in0.0 mm 1.04 in26.4 mm
05:36 PM 57.0°F13.9°C 52.2°F11.2°C 84% 10.0 mph ESE16.1 kmh ESE 10.0 mph16.1 kmh 30.04 in1017.3 mb 0.00 in0.0 mm 0.00 in0.0 mm 1.04 in26.4 mm
05:38 PM 57.8°F14.3°C 53.0°F11.7°C 84% 2.0 mph E3.2 kmh E 10.0 mph16.1 kmh 30.04 in1017.3 mb 0.00 in0.0 mm 0.00 in0.0 mm 1.04 in26.4 mm
05:40 PM 57.8°F14.3°C 53.0°F11.7°C 84% 2.0 mph E3.2 kmh E 10.0 mph16.1 kmh 30.04 in1017.3 mb 0.00 in0.0 mm 0.00 in0.0 mm 1.04 in26.4 mm
05:42 PM 57.8°F14.3°C 53.0°F11.7°C 84% 7.0 mph E11.3 kmh E 10.0 mph16.1 kmh 30.04 in1017.3 mb 0.00 in0.0 mm 0.00 in0.0 mm 1.04 in26.4 mm
05:44 PM 57.8°F14.3°C 53.0°F11.7°C 84% 7.0 mph E11.3 kmh E 10.0 mph16.1 kmh 30.05 in1017.6 mb 0.00 in0.0 mm 0.00 in0.0 mm 1.04 in26.4 mm
05:46 PM 57.8°F14.3°C 53.0°F11.7°C 84% 12.0 mph SE19.3 kmh SE 12.0 mph19.3 kmh 30.05 in1017.6 mb 0.00 in0.0 mm 0.00 in0.0 mm 1.04 in26.4 mm
05:48 PM 57.8°F14.3°C 53.0°F11.7°C 84% 5.0 mph E8.0 kmh E 12.0 mph19.3 kmh 30.05 in1017.6 mb 0.00 in0.0 mm 0.00 in0.0 mm 1.04 in26.4 mm
05:50 PM 58.0°F14.4°C 53.2°F11.8°C 84% 16.0 mph SSE25.7 kmh SSE 16.0 mph25.7 kmh 30.05 in1017.6 mb 0.00 in0.0 mm 0.00 in0.0 mm 1.04 in26.4 mm
05:52 PM 58.0°F14.4°C 53.2°F11.8°C 84% 6.0 mph ESE9.7 kmh ESE 16.0 mph25.7 kmh 30.05 in1017.6 mb 0.00 in0.0 mm 0.00 in0.0 mm 1.04 in26.4 mm
05:54 PM 58.0°F14.4°C 53.2°F11.8°C 84% 6.0 mph ESE9.7 kmh ESE 16.0 mph25.7 kmh 30.05 in1017.6 mb 0.00 in0.0 mm 0.00 in0.0 mm 1.04 in26.4 mm
05:56 PM 58.0°F14.4°C 53.2°F11.8°C 84% 2.0 mph E3.2 kmh E 16.0 mph25.7 kmh 30.05 in1017.6 mb 0.00 in0.0 mm 0.00 in0.0 mm 1.04 in26.4 mm
05:58 PM 58.0°F14.4°C 53.2°F11.8°C 84% 2.0 mph E3.2 kmh E 16.0 mph25.7 kmh 30.05 in1017.6 mb 0.00 in0.0 mm 0.00 in0.0 mm 1.04 in26.4 mm
06:00 PM 58.0°F14.4°C 53.2°F11.8°C 84% 2.0 mph E3.2 kmh E 16.0 mph25.7 kmh 30.06 in1017.9 mb 0.00 in0.0 mm 0.00 in0.0 mm 1.04 in26.4 mm
06:02 PM 58.1°F14.5°C 53.3°F11.8°C 84% 6.0 mph E9.7 kmh E 16.0 mph25.7 kmh 30.06 in1017.9 mb 0.00 in0.0 mm 0.00 in0.0 mm 1.04 in26.4 mm
06:04 PM 58.1°F14.5°C 53.3°F11.8°C 84% 6.0 mph E9.7 kmh E 16.0 mph25.7 kmh 30.06 in1017.9 mb 0.00 in0.0 mm 0.00 in0.0 mm 1.04 in26.4 mm
06:06 PM 58.1°F14.5°C 53.3°F11.8°C 84% 5.0 mph E8.0 kmh E 16.0 mph25.7 kmh 30.06 in1017.9 mb 0.00 in0.0 mm 0.00 in0.0 mm 1.04 in26.4 mm
06:08 PM 58.1°F14.5°C 53.3°F11.8°C 84% 6.0 mph S9.7 kmh S 16.0 mph25.7 kmh 30.06 in1017.9 mb 0.00 in0.0 mm 0.00 in0.0 mm 1.04 in26.4 mm
06:10 PM 58.1°F14.5°C 53.3°F11.8°C 84% 6.0 mph S9.7 kmh S 6.0 mph9.7 kmh 30.06 in1017.9 mb 0.00 in0.0 mm 0.00 in0.0 mm 1.04 in26.4 mm
06:12 PM 58.1°F14.5°C 53.3°F11.8°C 84% 6.0 mph SE9.7 kmh SE 6.0 mph9.7 kmh 30.06 in1017.9 mb 0.00 in0.0 mm 0.00 in0.0 mm 1.04 in26.4 mm
06:14 PM 58.3°F14.6°C 53.5°F11.9°C 84% 2.0 mph ESE3.2 kmh ESE 6.0 mph9.7 kmh 30.06 in1017.9 mb 0.00 in0.0 mm 0.00 in0.0 mm 1.04 in26.4 mm
06:16 PM 58.3°F14.6°C 53.5°F11.9°C 84% 2.0 mph ESE3.2 kmh ESE 6.0 mph9.7 kmh 30.06 in1017.9 mb 0.00 in0.0 mm 0.00 in0.0 mm 1.04 in26.4 mm
06:18 PM 58.3°F14.6°C 53.5°F11.9°C 84% 2.0 mph ESE3.2 kmh ESE 6.0 mph9.7 kmh 30.06 in1017.9 mb 0.00 in0.0 mm 0.00 in0.0 mm 1.04 in26.4 mm
06:20 PM 58.3°F14.6°C 53.5°F11.9°C 84% 2.0 mph ESE3.2 kmh ESE 6.0 mph9.7 kmh 30.06 in1017.9 mb 0.00 in0.0 mm 0.00 in0.0 mm 1.04 in26.4 mm
06:22 PM 58.3°F14.6°C 53.5°F11.9°C 84% 2.0 mph ESE3.2 kmh ESE 6.0 mph9.7 kmh 30.06 in1017.9 mb 0.00 in0.0 mm 0.00 in0.0 mm 1.04 in26.4 mm
06:24 PM 58.3°F14.6°C 53.5°F11.9°C 84% 6.0 mph E9.7 kmh E 6.0 mph9.7 kmh 30.06 in1017.9 mb 0.00 in0.0 mm 0.00 in0.0 mm 1.04 in26.4 mm
06:26 PM 58.3°F14.6°C 53.5°F11.9°C 84% 2.0 mph ESE3.2 kmh ESE 6.0 mph9.7 kmh 30.06 in1017.9 mb 0.00 in0.0 mm 0.00 in0.0 mm 1.04 in26.4 mm
06:28 PM 58.3°F14.6°C 53.5°F11.9°C 84% 2.0 mph ESE3.2 kmh ESE 6.0 mph9.7 kmh 30.06 in1017.9 mb 0.00 in0.0 mm 0.00 in0.0 mm 1.04 in26.4 mm
06:30 PM 58.1°F14.5°C 53.3°F11.8°C 84% 2.0 mph ENE3.2 kmh ENE 6.0 mph9.7 kmh 30.06 in1017.9 mb 0.00 in0.0 mm 0.00 in0.0 mm 1.04 in26.4 mm
06:32 PM 58.1°F14.5°C 53.3°F11.8°C 84% 6.0 mph ENE9.7 kmh ENE 6.0 mph9.7 kmh 30.06 in1017.9 mb 0.00 in0.0 mm 0.00 in0.0 mm 1.04 in26.4 mm
06:34 PM 58.1°F14.5°C 53.3°F11.8°C 84% 6.0 mph ENE9.7 kmh ENE 6.0 mph9.7 kmh 30.06 in1017.9 mb 0.00 in0.0 mm 0.00 in0.0 mm 1.04 in26.4 mm
06:36 PM 58.1°F14.5°C 53.3°F11.8°C 84% 1.0 mph SE1.6 kmh SE 6.0 mph9.7 kmh 30.06 in1017.9 mb 0.00 in0.0 mm 0.00 in0.0 mm 1.04 in26.4 mm
06:38 PM 58.1°F14.5°C 53.3°F11.8°C 84% Calm Calm 6.0 mph9.7 kmh 30.06 in1017.9 mb 0.00 in0.0 mm 0.00 in0.0 mm 1.04 in26.4 mm
06:40 PM 58.1°F14.5°C 53.3°F11.8°C 84% Calm Calm -- 30.06 in1017.9 mb 0.00 in0.0 mm 0.00 in0.0 mm 1.04 in26.4 mm
06:42 PM 58.1°F14.5°C 53.3°F11.8°C 84% Calm Calm -- 30.06 in1017.9 mb 0.00 in0.0 mm 0.00 in0.0 mm 1.04 in26.4 mm
06:44 PM 58.1°F14.5°C 53.3°F11.8°C 84% Calm Calm -- 30.07 in1018.3 mb 0.00 in0.0 mm 0.00 in0.0 mm 1.04 in26.4 mm
06:46 PM 58.1°F14.5°C 53.3°F11.8°C 84% Calm Calm -- 30.07 in1018.3 mb 0.00 in0.0 mm 0.00 in0.0 mm 1.04 in26.4 mm
06:48 PM 58.1°F14.5°C 53.3°F11.8°C 84% Calm Calm -- 30.07 in1018.3 mb 0.00 in0.0 mm 0.00 in0.0 mm 1.04 in26.4 mm
06:50 PM 58.0°F14.4°C 53.2°F11.8°C 84% Calm Calm -- 30.07 in1018.3 mb 0.00 in0.0 mm 0.00 in0.0 mm 1.04 in26.4 mm
06:52 PM 58.0°F14.4°C 53.2°F11.8°C 84% Calm Calm -- 30.07 in1018.3 mb 0.00 in0.0 mm 0.00 in0.0 mm 1.04 in26.4 mm
06:54 PM 58.0°F14.4°C 53.2°F11.8°C 84% Calm Calm -- 30.07 in1018.3 mb 0.00 in0.0 mm 0.00 in0.0 mm 1.04 in26.4 mm
06:56 PM 58.0°F14.4°C 53.2°F11.8°C 84% Calm Calm -- 30.07 in1018.3 mb 0.00 in0.0 mm 0.00 in0.0 mm 1.04 in26.4 mm
06:58 PM 57.5°F14.2°C 52.7°F11.5°C 84% Calm Calm -- 30.07 in1018.3 mb 0.00 in0.0 mm 0.00 in0.0 mm 1.04 in26.4 mm
07:00 PM 57.5°F14.2°C 52.7°F11.5°C 84% Calm Calm -- 30.07 in1018.3 mb 0.00 in0.0 mm 0.00 in0.0 mm 1.04 in26.4 mm
07:02 PM 57.5°F14.2°C 52.7°F11.5°C 84% Calm Calm -- 30.07 in1018.3 mb 0.00 in0.0 mm 0.00 in0.0 mm 1.04 in26.4 mm
07:04 PM 57.5°F14.2°C 52.7°F11.5°C 84% Calm Calm -- 30.07 in1018.3 mb 0.00 in0.0 mm 0.00 in0.0 mm 1.04 in26.4 mm
07:06 PM 57.5°F14.2°C 52.7°F11.5°C 84% Calm Calm -- 30.07 in1018.3 mb 0.00 in0.0 mm 0.00 in0.0 mm 1.04 in26.4 mm
07:08 PM 57.5°F14.2°C 52.7°F11.5°C 84% Calm Calm -- 30.07 in1018.3 mb 0.00 in0.0 mm 0.00 in0.0 mm 1.04 in26.4 mm
07:10 PM 57.5°F14.2°C 52.7°F11.5°C 84% Calm Calm -- 30.07 in1018.3 mb 0.00 in0.0 mm 0.00 in0.0 mm 1.04 in26.4 mm
07:12 PM 57.5°F14.2°C 52.7°F11.5°C 84% Calm Calm -- 30.07 in1018.3 mb 0.00 in0.0 mm 0.00 in0.0 mm 1.04 in26.4 mm
07:14 PM 57.5°F14.2°C 52.7°F11.5°C 84% Calm Calm -- 30.07 in1018.3 mb 0.00 in0.0 mm 0.00 in0.0 mm 1.04 in26.4 mm
07:16 PM 57.5°F14.2°C 52.7°F11.5°C 84% Calm Calm -- 30.07 in1018.3 mb 0.00 in0.0 mm 0.00 in0.0 mm 1.04 in26.4 mm
07:18 PM 57.5°F14.2°C 52.7°F11.5°C 84% Calm Calm -- 30.07 in1018.3 mb 0.00 in0.0 mm 0.00 in0.0 mm 1.04 in26.4 mm
07:20 PM 57.5°F14.2°C 52.7°F11.5°C 84% Calm Calm -- 30.07 in1018.3 mb 0.00 in0.0 mm 0.00 in0.0 mm 1.04 in26.4 mm
07:22 PM 57.5°F14.2°C 52.7°F11.5°C 84% Calm Calm -- 30.07 in1018.3 mb 0.00 in0.0 mm 0.00 in0.0 mm 1.04 in26.4 mm
07:24 PM 57.5°F14.2°C 52.7°F11.5°C 84% Calm Calm -- 30.07 in1018.3 mb 0.00 in0.0 mm 0.00 in0.0 mm 1.04 in26.4 mm
07:26 PM 57.5°F14.2°C 52.7°F11.5°C 84% Calm Calm -- 30.07 in1018.3 mb 0.00 in0.0 mm 0.00 in0.0 mm 1.04 in26.4 mm
07:28 PM 57.5°F14.2°C 52.7°F11.5°C 84% Calm Calm -- 30.07 in1018.3 mb 0.00 in0.0 mm 0.00 in0.0 mm 1.04 in26.4 mm
07:30 PM 55.9°F13.3°C 51.1°F10.6°C 84% Calm Calm -- 30.07 in1018.3 mb 0.00 in0.0 mm 0.00 in0.0 mm 1.04 in26.4 mm
07:32 PM 55.9°F13.3°C 51.1°F10.6°C 84% Calm Calm -- 30.07 in1018.3 mb 0.00 in0.0 mm 0.00 in0.0 mm 1.04 in26.4 mm
07:34 PM 55.9°F13.3°C 51.1°F10.6°C 84% Calm Calm -- 30.07 in1018.3 mb 0.00 in0.0 mm 0.00 in0.0 mm 1.04 in26.4 mm
07:36 PM 55.9°F13.3°C 51.1°F10.6°C 84% Calm Calm -- 30.07 in1018.3 mb 0.00 in0.0 mm 0.00 in0.0 mm 1.04 in26.4 mm
07:38 PM 55.9°F13.3°C 51.1°F10.6°C 84% Calm Calm -- 30.07 in1018.3 mb 0.00 in0.0 mm 0.00 in0.0 mm 1.04 in26.4 mm
07:40 PM 55.9°F13.3°C 51.1°F10.6°C 84% Calm Calm -- 30.07 in1018.3 mb 0.00 in0.0 mm 0.00 in0.0 mm 1.04 in26.4 mm
07:42 PM 55.3°F12.9°C 50.5°F10.3°C 84% Calm Calm -- 30.07 in1018.3 mb 0.00 in0.0 mm 0.00 in0.0 mm 1.04 in26.4 mm
07:44 PM 55.3°F12.9°C 50.5°F10.3°C 84% Calm Calm -- 30.08 in1018.6 mb 0.00 in0.0 mm 0.00 in0.0 mm 1.04 in26.4 mm
07:46 PM 55.3°F12.9°C 50.5°F10.3°C 84% Calm Calm -- 30.08 in1018.6 mb 0.00 in0.0 mm 0.00 in0.0 mm 1.04 in26.4 mm
07:48 PM 55.3°F12.9°C 50.5°F10.3°C 84% Calm Calm -- 30.08 in1018.6 mb 0.00 in0.0 mm 0.00 in0.0 mm 1.04 in26.4 mm
07:50 PM 55.3°F12.9°C 50.5°F10.3°C 84% Calm Calm -- 30.08 in1018.6 mb 0.00 in0.0 mm 0.00 in0.0 mm 1.04 in26.4 mm
07:52 PM 55.3°F12.9°C 50.5°F10.3°C 84% Calm Calm -- 30.08 in1018.6 mb 0.00 in0.0 mm 0.00 in0.0 mm 1.04 in26.4 mm
07:54 PM 55.3°F12.9°C 50.5°F10.3°C 84% Calm Calm -- 30.08 in1018.6 mb 0.00 in0.0 mm 0.00 in0.0 mm 1.04 in26.4 mm
07:56 PM 55.3°F12.9°C 50.5°F10.3°C 84% Calm Calm -- 30.08 in1018.6 mb 0.00 in0.0 mm 0.00 in0.0 mm 1.04 in26.4 mm
07:58 PM 55.3°F12.9°C 50.5°F10.3°C 84% Calm Calm -- 30.08 in1018.6 mb 0.00 in0.0 mm 0.00 in0.0 mm 1.04 in26.4 mm
08:00 PM 55.3°F12.9°C 50.5°F10.3°C 84% Calm Calm -- 30.08 in1018.6 mb 0.00 in0.0 mm 0.00 in0.0 mm 1.04 in26.4 mm
08:02 PM 55.3°F12.9°C 50.5°F10.3°C 84% Calm Calm -- 30.08 in1018.6 mb 0.00 in0.0 mm 0.00 in0.0 mm 1.04 in26.4 mm
08:04 PM 55.3°F12.9°C 50.5°F10.3°C 84% Calm Calm -- 30.08 in1018.6 mb 0.00 in0.0 mm 0.00 in0.0 mm 1.04 in26.4 mm
08:06 PM 54.4°F12.4°C 49.7°F9.8°C 84% 2.0 mph E3.2 kmh E 2.0 mph3.2 kmh 30.08 in1018.6 mb 0.00 in0.0 mm 0.00 in0.0 mm 1.04 in26.4 mm
08:08 PM 54.4°F12.4°C 49.7°F9.8°C 84% Calm Calm 2.0 mph3.2 kmh 30.08 in1018.6 mb 0.00 in0.0 mm 0.00 in0.0 mm 1.04 in26.4 mm
08:10 PM 54.4°F12.4°C 49.7°F9.8°C 84% Calm Calm -- 30.08 in1018.6 mb 0.00 in0.0 mm 0.00 in0.0 mm 1.04 in26.4 mm
08:12 PM 54.4°F12.4°C 49.7°F9.8°C 84% Calm Calm -- 30.08 in1018.6 mb 0.00 in0.0 mm 0.00 in0.0 mm 1.04 in26.4 mm
08:14 PM 54.4°F12.4°C 49.7°F9.8°C 84% 2.0 mph SE3.2 kmh SE 2.0 mph3.2 kmh 30.09 in1019.0 mb 0.00 in0.0 mm 0.00 in0.0 mm 1.04 in26.4 mm
08:16 PM 54.4°F12.4°C 49.7°F9.8°C 84% Calm Calm 2.0 mph3.2 kmh 30.09 in1019.0 mb 0.00 in0.0 mm 0.00 in0.0 mm 1.04 in26.4 mm
08:18 PM 54.4°F12.4°C 49.7°F9.8°C 84% 1.0 mph SSE1.6 kmh SSE 1.0 mph1.6 kmh 30.09 in1019.0 mb 0.00 in0.0 mm 0.00 in0.0 mm 1.04 in26.4 mm
08:20 PM 54.4°F12.4°C 49.7°F9.8°C 84% 2.0 mph SE3.2 kmh SE 2.0 mph3.2 kmh 30.09 in1019.0 mb 0.00 in0.0 mm 0.00 in0.0 mm 1.04 in26.4 mm
08:22 PM 55.1°F12.8°C 50.4°F10.2°C 84% 2.0 mph E3.2 kmh E 2.0 mph3.2 kmh 30.09 in1019.0 mb 0.00 in0.0 mm 0.00 in0.0 mm 1.04 in26.4 mm
08:24 PM 55.1°F12.8°C 50.4°F10.2°C 84% 2.0 mph E3.2 kmh E 2.0 mph3.2 kmh 30.09 in1019.0 mb 0.00 in0.0 mm 0.00 in0.0 mm 1.04 in26.4 mm
08:26 PM 55.1°F12.8°C 50.4°F10.2°C 84% Calm Calm 2.0 mph3.2 kmh 30.09 in1019.0 mb 0.00 in0.0 mm 0.00 in0.0 mm 1.04 in26.4 mm
08:28 PM 55.1°F12.8°C 50.4°F10.2°C 84% Calm Calm -- 30.09 in1019.0 mb 0.00 in0.0 mm 0.00 in0.0 mm 1.04 in26.4 mm
08:30 PM 55.1°F12.8°C 50.4°F10.2°C 84% Calm Calm -- 30.09 in1019.0 mb 0.00 in0.0 mm 0.00 in0.0 mm 1.04 in26.4 mm
08:32 PM 55.1°F12.8°C 50.4°F10.2°C 84% Calm Calm -- 30.09 in1019.0 mb 0.00 in0.0 mm 0.00 in0.0 mm 1.04 in26.4 mm
08:34 PM 55.1°F12.8°C 50.4°F10.2°C 84% 1.0 mph SE1.6 kmh SE 1.0 mph1.6 kmh 30.09 in1019.0 mb 0.00 in0.0 mm 0.00 in0.0 mm 1.04 in26.4 mm
08:36 PM 55.1°F12.8°C 50.4°F10.2°C 84% Calm Calm 1.0 mph1.6 kmh 30.09 in1019.0 mb 0.00 in0.0 mm 0.00 in0.0 mm 1.04 in26.4 mm
08:38 PM 55.4°F13.0°C 50.6°F10.3°C 84% Calm Calm -- 30.09 in1019.0 mb 0.00 in0.0 mm 0.00 in0.0 mm 1.04 in26.4 mm
08:40 PM 55.4°F13.0°C 50.6°F10.3°C 84% Calm Calm -- 30.09 in1019.0 mb 0.00 in0.0 mm 0.00 in0.0 mm 1.04 in26.4 mm
08:42 PM 55.4°F13.0°C 50.6°F10.3°C 84% Calm Calm -- 30.09 in1019.0 mb 0.00 in0.0 mm 0.00 in0.0 mm 1.04 in26.4 mm
08:44 PM 55.4°F13.0°C 50.6°F10.3°C 84% Calm Calm -- 30.10 in1019.3 mb 0.00 in0.0 mm 0.00 in0.0 mm 1.04 in26.4 mm
08:46 PM 55.3°F12.9°C 50.5°F10.3°C 84% Calm Calm -- 30.10 in1019.3 mb 0.00 in0.0 mm 0.00 in0.0 mm 1.04 in26.4 mm
08:48 PM 55.3°F12.9°C 50.5°F10.3°C 84% Calm Calm -- 30.10 in1019.3 mb 0.00 in0.0 mm 0.00 in0.0 mm 1.04 in26.4 mm
08:50 PM 55.3°F12.9°C 50.5°F10.3°C 84% 3.0 mph ESE4.8 kmh ESE 3.0 mph4.8 kmh 30.10 in1019.3 mb 0.00 in0.0 mm 0.00 in0.0 mm 1.04 in26.4 mm
08:52 PM 55.3°F12.9°C 50.5°F10.3°C 84% 3.0 mph ESE4.8 kmh ESE 3.0 mph4.8 kmh 30.10 in1019.3 mb 0.00 in0.0 mm 0.00 in0.0 mm 1.04 in26.4 mm
08:54 PM 55.3°F12.9°C 50.5°F10.3°C 84% 2.0 mph ESE3.2 kmh ESE 3.0 mph4.8 kmh 30.10 in1019.3 mb 0.00 in0.0 mm 0.00 in0.0 mm 1.04 in26.4 mm
08:56 PM 55.3°F12.9°C 50.5°F10.3°C 84% 1.0 mph ESE1.6 kmh ESE 3.0 mph4.8 kmh 30.10 in1019.3 mb 0.00 in0.0 mm 0.00 in0.0 mm 1.04 in26.4 mm
08:58 PM 55.3°F12.9°C 50.5°F10.3°C 84% Calm Calm 3.0 mph4.8 kmh 30.10 in1019.3 mb 0.00 in0.0 mm 0.00 in0.0 mm 1.04 in26.4 mm
09:00 PM 55.3°F12.9°C 50.5°F10.3°C 84% Calm Calm -- 30.10 in1019.3 mb 0.00 in0.0 mm 0.00 in0.0 mm 1.04 in26.4 mm
09:02 PM 55.4°F13.0°C 50.6°F10.3°C 84% Calm Calm -- 30.10 in1019.3 mb 0.00 in0.0 mm 0.00 in0.0 mm 1.04 in26.4 mm
09:04 PM 55.4°F13.0°C 50.6°F10.3°C 84% Calm Calm -- 30.10 in1019.3 mb 0.00 in0.0 mm 0.00 in0.0 mm 1.04 in26.4 mm
09:06 PM 55.4°F13.0°C 50.6°F10.3°C 84% Calm Calm -- 30.10 in1019.3 mb 0.00 in0.0 mm 0.00 in0.0 mm 1.04 in26.4 mm
09:08 PM 55.4°F13.0°C 50.6°F10.3°C 84% Calm Calm -- 30.10 in1019.3 mb 0.00 in0.0 mm 0.00 in0.0 mm 1.04 in26.4 mm
09:10 PM 55.4°F13.0°C 50.6°F10.3°C 84% Calm Calm -- 30.10 in1019.3 mb 0.00 in0.0 mm 0.00 in0.0 mm 1.04 in26.4 mm
09:12 PM 55.4°F13.0°C 50.6°F10.3°C 84% Calm Calm -- 30.10 in1019.3 mb 0.00 in0.0 mm 0.00 in0.0 mm 1.04 in26.4 mm
09:14 PM 55.4°F13.0°C 50.6°F10.3°C 84% 2.0 mph S3.2 kmh S 2.0 mph3.2 kmh 30.11 in1019.6 mb 0.00 in0.0 mm 0.00 in0.0 mm 1.04 in26.4 mm
09:16 PM 55.4°F13.0°C 50.6°F10.3°C 84% 2.0 mph S3.2 kmh S 2.0 mph3.2 kmh 30.11 in1019.6 mb 0.00 in0.0 mm 0.00 in0.0 mm 1.04 in26.4 mm
09:18 PM 55.4°F13.0°C 50.6°F10.3°C 84% Calm Calm 2.0 mph3.2 kmh 30.11 in1019.6 mb 0.00 in0.0 mm 0.00 in0.0 mm 1.04 in26.4 mm
09:20 PM 55.4°F13.0°C 50.6°F10.3°C 84% 2.0 mph SSW3.2 kmh SSW 2.0 mph3.2 kmh 30.11 in1019.6 mb 0.00 in0.0 mm 0.00 in0.0 mm 1.04 in26.4 mm
09:22 PM 55.4°F13.0°C 50.6°F10.3°C 84% 2.0 mph SSW3.2 kmh SSW 2.0 mph3.2 kmh 30.11 in1019.6 mb 0.00 in0.0 mm 0.00 in0.0 mm 1.04 in26.4 mm
09:24 PM 55.4°F13.0°C 50.6°F10.3°C 84% 2.0 mph WSW3.2 kmh WSW 2.0 mph3.2 kmh 30.11 in1019.6 mb 0.00 in0.0 mm 0.00 in0.0 mm 1.04 in26.4 mm
09:26 PM 55.3°F12.9°C 50.5°F10.3°C 84% Calm Calm 2.0 mph3.2 kmh 30.11 in1019.6 mb 0.00 in0.0 mm 0.00 in0.0 mm 1.04 in26.4 mm
09:28 PM 55.3°F12.9°C 50.5°F10.3°C 84% Calm Calm -- 30.11 in1019.6 mb 0.00 in0.0 mm 0.00 in0.0 mm 1.04 in26.4 mm
09:30 PM 55.3°F12.9°C 50.5°F10.3°C 84% Calm Calm -- 30.10 in1019.3 mb 0.00 in0.0 mm 0.00 in0.0 mm 1.04 in26.4 mm
09:32 PM 55.1°F12.8°C 50.4°F10.2°C 84% Calm Calm -- 30.10 in1019.3 mb 0.00 in0.0 mm 0.00 in0.0 mm 1.04 in26.4 mm
09:34 PM 55.1°F12.8°C 50.4°F10.2°C 84% Calm Calm -- 30.10 in1019.3 mb 0.00 in0.0 mm 0.00 in0.0 mm 1.04 in26.4 mm
09:36 PM 55.0°F12.8°C 50.3°F10.2°C 84% Calm Calm -- 30.10 in1019.3 mb 0.00 in0.0 mm 0.00 in0.0 mm 1.04 in26.4 mm
09:38 PM 55.0°F12.8°C 50.3°F10.2°C 84% Calm Calm -- 30.10 in1019.3 mb 0.00 in0.0 mm 0.00 in0.0 mm 1.04 in26.4 mm
09:40 PM 55.0°F12.8°C 50.3°F10.2°C 84% Calm Calm -- 30.10 in1019.3 mb 0.00 in0.0 mm 0.00 in0.0 mm 1.04 in26.4 mm
09:42 PM 55.0°F12.8°C 50.3°F10.2°C 84% Calm Calm -- 30.10 in1019.3 mb 0.00 in0.0 mm 0.00 in0.0 mm 1.04 in26.4 mm
09:44 PM 54.8°F12.7°C 50.1°F10.1°C 84% Calm Calm -- 30.10 in1019.3 mb 0.00 in0.0 mm 0.00 in0.0 mm 1.04 in26.4 mm
09:46 PM 54.8°F12.7°C 50.1°F10.1°C 84% Calm Calm -- 30.10 in1019.3 mb 0.00 in0.0 mm 0.00 in0.0 mm 1.04 in26.4 mm
09:48 PM 54.8°F12.7°C 50.1°F10.1°C 84% Calm Calm -- 30.10 in1019.3 mb 0.00 in0.0 mm 0.00 in0.0 mm 1.04 in26.4 mm
09:50 PM 54.8°F12.7°C 50.1°F10.1°C 84% Calm Calm -- 30.10 in1019.3 mb 0.00 in0.0 mm 0.00 in0.0 mm 1.04 in26.4 mm
09:52 PM 54.8°F12.7°C 50.1°F10.1°C 84% Calm Calm -- 30.10 in1019.3 mb 0.00 in0.0 mm 0.00 in0.0 mm 1.04 in26.4 mm
09:54 PM 54.5°F12.5°C 49.8°F9.9°C 84% Calm Calm -- 30.10 in1019.3 mb 0.00 in0.0 mm 0.00 in0.0 mm 1.04 in26.4 mm
09:56 PM 54.5°F12.5°C 49.8°F9.9°C 84% Calm Calm -- 30.10 in1019.3 mb 0.00 in0.0 mm 0.00 in0.0 mm 1.04 in26.4 mm
09:58 PM 54.5°F12.5°C 49.8°F9.9°C 84% Calm Calm -- 30.10 in1019.3 mb 0.00 in0.0 mm 0.00 in0.0 mm 1.04 in26.4 mm
10:00 PM 54.5°F12.5°C 49.8°F9.9°C 84% Calm Calm -- 30.10 in1019.3 mb 0.00 in0.0 mm 0.00 in0.0 mm 1.04 in26.4 mm
10:02 PM 54.5°F12.5°C 49.8°F9.9°C 84% Calm Calm -- 30.10 in1019.3 mb 0.00 in0.0 mm 0.00 in0.0 mm 1.04 in26.4 mm
10:04 PM 54.4°F12.4°C 49.7°F9.8°C 84% Calm Calm -- 30.10 in1019.3 mb 0.00 in0.0 mm 0.00 in0.0 mm 1.04 in26.4 mm
10:06 PM 54.4°F12.4°C 49.7°F9.8°C 84% Calm Calm -- 30.10 in1019.3 mb 0.00 in0.0 mm 0.00 in0.0 mm 1.04 in26.4 mm
10:08 PM 54.4°F12.4°C 49.7°F9.8°C 84% Calm Calm -- 30.10 in1019.3 mb 0.00 in0.0 mm 0.00 in0.0 mm 1.04 in26.4 mm
10:10 PM 54.4°F12.4°C 49.7°F9.8°C 84% Calm Calm -- 30.10 in1019.3 mb 0.00 in0.0 mm 0.00 in0.0 mm 1.04 in26.4 mm
10:12 PM 54.4°F12.4°C 49.7°F9.8°C 84% Calm Calm -- 30.10 in1019.3 mb 0.00 in0.0 mm 0.00 in0.0 mm 1.04 in26.4 mm
10:14 PM 54.4°F12.4°C 49.7°F9.8°C 84% Calm Calm -- 30.11 in1019.6 mb 0.00 in0.0 mm 0.00 in0.0 mm 1.04 in26.4 mm
10:16 PM 54.4°F12.4°C 49.7°F9.8°C 84% Calm Calm -- 30.11 in1019.6 mb 0.00 in0.0 mm 0.00 in0.0 mm 1.04 in26.4 mm
10:18 PM 54.4°F12.4°C 49.7°F9.8°C 84% Calm Calm -- 30.11 in1019.6 mb 0.00 in0.0 mm 0.00 in0.0 mm 1.04 in26.4 mm
10:20 PM 54.4°F12.4°C 49.7°F9.8°C 84% Calm Calm -- 30.11 in1019.6 mb 0.00 in0.0 mm 0.00 in0.0 mm 1.04 in26.4 mm
10:22 PM 54.4°F12.4°C 49.7°F9.8°C 84% Calm Calm -- 30.11 in1019.6 mb 0.00 in0.0 mm 0.00 in0.0 mm 1.04 in26.4 mm
10:24 PM 54.4°F12.4°C 49.7°F9.8°C 84% Calm Calm -- 30.11 in1019.6 mb 0.00 in0.0 mm 0.00 in0.0 mm 1.04 in26.4 mm
10:26 PM 54.4°F12.4°C 49.7°F9.8°C 84% Calm Calm -- 30.11 in1019.6 mb 0.00 in0.0 mm 0.00 in0.0 mm 1.04 in26.4 mm
10:28 PM 54.4°F12.4°C 49.7°F9.8°C 84% Calm Calm -- 30.11 in1019.6 mb 0.00 in0.0 mm 0.00 in0.0 mm 1.04 in26.4 mm
10:30 PM 54.4°F12.4°C 49.7°F9.8°C 84% Calm Calm -- 30.11 in1019.6 mb 0.00 in0.0 mm 0.00 in0.0 mm 1.04 in26.4 mm
10:32 PM 54.4°F12.4°C 49.7°F9.8°C 84% Calm Calm -- 30.11 in1019.6 mb 0.00 in0.0 mm 0.00 in0.0 mm 1.04 in26.4 mm
10:34 PM 54.4°F12.4°C 49.7°F9.8°C 84% Calm Calm -- 30.11 in1019.6 mb 0.00 in0.0 mm 0.00 in0.0 mm 1.04 in26.4 mm
10:36 PM 54.4°F12.4°C 49.7°F9.8°C 84% Calm Calm -- 30.11 in1019.6 mb 0.00 in0.0 mm 0.00 in0.0 mm 1.04 in26.4 mm
10:38 PM 54.4°F12.4°C 49.7°F9.8°C 84% Calm Calm -- 30.11 in1019.6 mb 0.00 in0.0 mm 0.00 in0.0 mm 1.04 in26.4 mm
10:40 PM 54.4°F12.4°C 49.7°F9.8°C 84% Calm Calm -- 30.11 in1019.6 mb 0.00 in0.0 mm 0.00 in0.0 mm 1.04 in26.4 mm
10:42 PM 54.4°F12.4°C 49.7°F9.8°C 84% Calm Calm -- 30.11 in1019.6 mb 0.00 in0.0 mm 0.00 in0.0 mm 1.04 in26.4 mm
10:44 PM 54.4°F12.4°C 49.7°F9.8°C 84% Calm Calm -- 30.10 in1019.3 mb 0.00 in0.0 mm 0.00 in0.0 mm 1.04 in26.4 mm
10:46 PM 54.4°F12.4°C 49.7°F9.8°C 84% Calm Calm -- 30.10 in1019.3 mb 0.00 in0.0 mm 0.00 in0.0 mm 1.04 in26.4 mm
10:48 PM 54.4°F12.4°C 49.7°F9.8°C 84% Calm Calm -- 30.10 in1019.3 mb 0.00 in0.0 mm 0.00 in0.0 mm 1.04 in26.4 mm
10:50 PM 54.4°F12.4°C 49.7°F9.8°C 84% Calm Calm -- 30.10 in1019.3 mb 0.00 in0.0 mm 0.00 in0.0 mm 1.04 in26.4 mm
10:52 PM 54.4°F12.4°C 49.7°F9.8°C 84% Calm Calm -- 30.10 in1019.3 mb 0.00 in0.0 mm 0.00 in0.0 mm 1.04 in26.4 mm
10:54 PM 54.4°F12.4°C 49.7°F9.8°C 84% Calm Calm -- 30.10 in1019.3 mb 0.00 in0.0 mm 0.00 in0.0 mm 1.04 in26.4 mm
10:56 PM 54.2°F12.3°C 49.5°F9.7°C 84% Calm Calm -- 30.10 in1019.3 mb 0.00 in0.0 mm 0.00 in0.0 mm 1.04 in26.4 mm
10:58 PM 54.2°F12.3°C 49.5°F9.7°C 84% Calm Calm -- 30.10 in1019.3 mb 0.00 in0.0 mm 0.00 in0.0 mm 1.04 in26.4 mm
11:00 PM 54.2°F12.3°C 49.5°F9.7°C 84% Calm Calm -- 30.10 in1019.3 mb 0.00 in0.0 mm 0.00 in0.0 mm 1.04 in26.4 mm
11:02 PM 54.1°F12.3°C 49.4°F9.7°C 84% Calm Calm -- 30.10 in1019.3 mb 0.00 in0.0 mm 0.00 in0.0 mm 1.04 in26.4 mm
11:04 PM 54.1°F12.3°C 49.4°F9.7°C 84% Calm Calm -- 30.10 in1019.3 mb 0.00 in0.0 mm 0.00 in0.0 mm 1.04 in26.4 mm
11:06 PM 54.1°F12.3°C 49.4°F9.7°C 84% Calm Calm -- 30.10 in1019.3 mb 0.00 in0.0 mm 0.00 in0.0 mm 1.04 in26.4 mm
11:08 PM 53.9°F12.2°C 49.2°F9.6°C 84% Calm Calm -- 30.10 in1019.3 mb 0.00 in0.0 mm 0.00 in0.0 mm 1.04 in26.4 mm
11:10 PM 53.9°F12.2°C 49.2°F9.6°C 84% Calm Calm -- 30.10 in1019.3 mb 0.00 in0.0 mm 0.00 in0.0 mm 1.04 in26.4 mm
11:12 PM 53.9°F12.2°C 49.2°F9.6°C 84% Calm Calm -- 30.10 in1019.3 mb 0.00 in0.0 mm 0.00 in0.0 mm 1.04 in26.4 mm
11:14 PM 53.9°F12.2°C 49.2°F9.6°C 84% Calm Calm -- 30.10 in1019.3 mb 0.00 in0.0 mm 0.00 in0.0 mm 1.04 in26.4 mm
11:16 PM 53.9°F12.2°C 49.2°F9.6°C 84% Calm Calm -- 30.10 in1019.3 mb 0.00 in0.0 mm 0.00 in0.0 mm 1.04 in26.4 mm
11:18 PM 53.9°F12.2°C 49.2°F9.6°C 84% Calm Calm -- 30.10 in1019.3 mb 0.00 in0.0 mm 0.00 in0.0 mm 1.04 in26.4 mm
11:20 PM 53.9°F12.2°C 49.2°F9.6°C 84% Calm Calm -- 30.10 in1019.3 mb 0.00 in0.0 mm 0.00 in0.0 mm 1.04 in26.4 mm
11:22 PM 53.9°F12.2°C 49.2°F9.6°C 84% Calm Calm -- 30.10 in1019.3 mb 0.00 in0.0 mm 0.00 in0.0 mm 1.04 in26.4 mm
11:24 PM 53.9°F12.2°C 49.2°F9.6°C 84% Calm Calm -- 30.10 in1019.3 mb 0.00 in0.0 mm 0.00 in0.0 mm 1.04 in26.4 mm
11:26 PM 53.9°F12.2°C 49.2°F9.6°C 84% Calm Calm -- 30.10 in1019.3 mb 0.00 in0.0 mm 0.00 in0.0 mm 1.04 in26.4 mm
11:28 PM 53.9°F12.2°C 49.2°F9.6°C 84% Calm Calm -- 30.10 in1019.3 mb 0.00 in0.0 mm 0.00 in0.0 mm 1.04 in26.4 mm
11:30 PM 53.9°F12.2°C 49.2°F9.6°C 84% Calm Calm -- 30.10 in1019.3 mb 0.00 in0.0 mm 0.00 in0.0 mm 1.04 in26.4 mm
11:32 PM 53.9°F12.2°C 49.2°F9.6°C 84% Calm Calm -- 30.10 in1019.3 mb 0.00 in0.0 mm 0.00 in0.0 mm 1.04 in26.4 mm
11:34 PM 53.8°F12.1°C 49.1°F9.5°C 84% Calm Calm -- 30.10 in1019.3 mb 0.00 in0.0 mm 0.00 in0.0 mm 1.04 in26.4 mm
11:36 PM 53.8°F12.1°C 49.1°F9.5°C 84% Calm Calm -- 30.10 in1019.3 mb 0.00 in0.0 mm 0.00 in0.0 mm 1.04 in26.4 mm
11:38 PM 53.6°F12.0°C 48.9°F9.4°C 84% Calm Calm -- 30.10 in1019.3 mb 0.00 in0.0 mm 0.00 in0.0 mm 1.04 in26.4 mm
11:40 PM 53.6°F12.0°C 48.9°F9.4°C 84% Calm Calm -- 30.10 in1019.3 mb 0.00 in0.0 mm 0.00 in0.0 mm 1.04 in26.4 mm
11:42 PM 53.6°F12.0°C 48.9°F9.4°C 84% Calm Calm -- 30.10 in1019.3 mb 0.00 in0.0 mm 0.00 in0.0 mm 1.04 in26.4 mm
11:44 PM 53.6°F12.0°C 48.9°F9.4°C 84% Calm Calm -- 30.11 in1019.6 mb 0.00 in0.0 mm 0.00 in0.0 mm 1.04 in26.4 mm
11:46 PM 53.6°F12.0°C 48.9°F9.4°C 84% Calm Calm -- 30.11 in1019.6 mb 0.00 in0.0 mm 0.00 in0.0 mm 1.04 in26.4 mm
11:48 PM 53.6°F12.0°C 48.9°F9.4°C 84% Calm Calm -- 30.11 in1019.6 mb 0.00 in0.0 mm 0.00 in0.0 mm 1.04 in26.4 mm
11:50 PM 53.2°F11.8°C 48.5°F9.2°C 84% Calm Calm -- 30.11 in1019.6 mb 0.00 in0.0 mm 0.00 in0.0 mm 1.04 in26.4 mm
11:52 PM 53.2°F11.8°C 48.5°F9.2°C 84% Calm Calm -- 30.11 in1019.6 mb 0.00 in0.0 mm 0.00 in0.0 mm 1.04 in26.4 mm
11:54 PM 53.2°F11.8°C 48.5°F9.2°C 84% Calm Calm -- 30.11 in1019.6 mb 0.00 in0.0 mm 0.00 in0.0 mm 1.04 in26.4 mm
11:56 PM 53.1°F11.7°C 48.4°F9.1°C 84% Calm Calm -- 30.11 in1019.6 mb 0.00 in0.0 mm 0.00 in0.0 mm 1.04 in26.4 mm
11:58 PM 53.1°F11.7°C 48.4°F9.1°C 84% Calm Calm -- 30.11 in1019.6 mb 0.00 in0.0 mm 0.00 in0.0 mm 1.04 in26.4 mm